Wetterdaten: Mittwoch, 13.01.2021
Datum Zeit Temp. Aussen Temp. o. S. Temp +5cm Feuchte Auss Luftdruck Regen Sonnenschein Regendauer Solar Windben Empfang
13.01.2021 00:00 1,3 C 0,6 C 0,0 C 96 % 1016,7 hPa 0,0 l/m 0 min 0 min 0 W/m 0,0 km/h (0 Bft) 95,65 %
13.01.2021 00:02 1,3 C 0,6 C 0,0 C 96 % 1016,8 hPa 0,0 l/m 0 min 0 min 0 W/m 0,0 km/h (0 Bft) 94,74 %
13.01.2021 00:04 1,3 C 0,6 C 0,0 C 96 % 1016,8 hPa 0,0 l/m 0 min 0 min 0 W/m 1,6 km/h (1 Bft) 95,74 %
13.01.2021 00:08 1,3 C 0,6 C 0,0 C 96 % 1016,8 hPa 0,0 l/m 0 min 0 min 0 W/m 0,0 km/h (0 Bft) 94,68 %
13.01.2021 00:10 1,3 C 0,6 C 0,0 C 96 % 1016,9 hPa 0,0 l/m 0 min 0 min 0 W/m 0,0 km/h (0 Bft) 95,74 %
13.01.2021 00:12 1,3 C 0,6 C 0,0 C 96 % 1016,9 hPa 0,0 l/m 0 min 0 min 0 W/m 3,2 km/h (1 Bft) 95,65 %
13.01.2021 00:14 1,3 C 0,6 C 0,0 C 96 % 1017,0 hPa 0,0 l/m 0 min 0 min 0 W/m 0,0 km/h (0 Bft) 93,62 %
13.01.2021 00:16 1,3 C 0,6 C 0,0 C 96 % 1017,0 hPa 0,0 l/m 0 min 0 min 0 W/m 0,0 km/h (0 Bft) 95,74 %
13.01.2021 00:18 1,3 C 0,6 C 0,0 C 96 % 1017,0 hPa 0,0 l/m 0 min 0 min 0 W/m 3,2 km/h (1 Bft) 95,74 %
13.01.2021 00:20 1,3 C 0,6 C 0,0 C 96 % 1017,0 hPa 0,0 l/m 0 min 0 min 0 W/m 0,0 km/h (0 Bft) 95,74 %
13.01.2021 00:22 1,3 C 0,6 C 0,0 C 96 % 1017,0 hPa 0,0 l/m 0 min 0 min 0 W/m 0,0 km/h (0 Bft) 95,74 %
13.01.2021 00:24 1,3 C 0,6 C 0,0 C 96 % 1017,0 hPa 0,0 l/m 0 min 0 min 0 W/m 0,0 km/h (0 Bft) 95,65 %
13.01.2021 00:26 1,3 C 0,6 C 0,0 C 96 % 1017,0 hPa 0,0 l/m 0 min 0 min 0 W/m 1,6 km/h (1 Bft) 100,00 %
13.01.2021 00:28 1,3 C 0,6 C 0,0 C 96 % 1017,0 hPa 0,0 l/m 0 min 0 min 0 W/m 1,6 km/h (1 Bft) 97,87 %
13.01.2021 00:30 1,3 C 0,6 C 0,0 C 96 % 1017,1 hPa 0,0 l/m 0 min 0 min 0 W/m 3,2 km/h (1 Bft) 100,00 %
13.01.2021 00:32 1,2 C 0,6 C 0,0 C 96 % 1017,0 hPa 0,0 l/m 0 min 0 min 0 W/m 0,0 km/h (0 Bft) 95,74 %
13.01.2021 00:34 1,2 C 0,6 C 0,0 C 96 % 1017,0 hPa 0,0 l/m 0 min 0 min 0 W/m 0,0 km/h (0 Bft) 100,00 %
13.01.2021 00:36 1,2 C 0,6 C 0,0 C 96 % 1017,1 hPa 0,0 l/m 0 min 0 min 0 W/m 1,6 km/h (1 Bft) 97,83 %
13.01.2021 00:38 1,3 C 0,6 C 0,0 C 96 % 1017,1 hPa 0,0 l/m 0 min 0 min 0 W/m 4,8 km/h (1 Bft) 100,00 %
13.01.2021 00:40 1,3 C 0,6 C 0,0 C 96 % 1017,1 hPa 0,0 l/m 0 min 0 min 0 W/m 0,0 km/h (0 Bft) 97,92 %
13.01.2021 00:42 1,3 C 0,6 C 0,0 C 96 % 1017,1 hPa 0,0 l/m 0 min 0 min 0 W/m 0,0 km/h (0 Bft) 100,00 %
13.01.2021 00:44 1,3 C 0,6 C 0,0 C 96 % 1017,1 hPa 0,0 l/m 0 min 0 min 0 W/m 1,6 km/h (1 Bft) 100,00 %
13.01.2021 00:46 1,3 C 0,6 C 0,0 C 96 % 1017,1 hPa 0,0 l/m 0 min 0 min 0 W/m 1,6 km/h (1 Bft) 100,00 %
13.01.2021 00:48 1,3 C 0,6 C 0,0 C 96 % 1017,1 hPa 0,0 l/m 0 min 0 min 0 W/m 0,0 km/h (0 Bft) 100,00 %
13.01.2021 00:50 1,3 C 0,6 C 0,0 C 96 % 1017,1 hPa 0,0 l/m 0 min 0 min 0 W/m 1,6 km/h (1 Bft) 100,00 %
13.01.2021 00:52 1,3 C 0,6 C 0,0 C 96 % 1017,1 hPa 0,0 l/m 0 min 0 min 0 W/m 0,0 km/h (0 Bft) 97,87 %
13.01.2021 00:54 1,3 C 0,6 C 0,0 C 96 % 1017,0 hPa 0,0 l/m 0 min 0 min 0 W/m 3,2 km/h (1 Bft) 100,00 %
13.01.2021 00:56 1,3 C 0,6 C 0,0 C 96 % 1017,0 hPa 0,0 l/m 0 min 0 min 0 W/m 1,6 km/h (1 Bft) 100,00 %
13.01.2021 00:58 1,3 C 0,6 C 0,0 C 97 % 1017,0 hPa 0,0 l/m 0 min 0 min 0 W/m 1,6 km/h (1 Bft) 57,45 %
13.01.2021 01:00 1,3 C 0,6 C 0,0 C 97 % 1017,0 hPa 0,0 l/m 0 min 0 min 0 W/m 0,0 km/h (0 Bft) 100,00 %
13.01.2021 01:02 1,2 C 0,6 C 0,0 C 97 % 1016,9 hPa 0,0 l/m 0 min 0 min 0 W/m 0,0 km/h (0 Bft) 97,87 %
13.01.2021 01:04 1,2 C 0,6 C 0,0 C 97 % 1017,0 hPa 0,0 l/m 0 min 0 min 0 W/m 0,0 km/h (0 Bft) 100,00 %
13.01.2021 01:06 1,2 C 0,6 C 0,0 C 97 % 1017,0 hPa 0,0 l/m 0 min 0 min 0 W/m 1,6 km/h (1 Bft) 100,00 %
13.01.2021 01:08 1,2 C 0,6 C 0,0 C 97 % 1017,0 hPa 0,0 l/m 0 min 0 min 0 W/m 0,0 km/h (0 Bft) 100,00 %
13.01.2021 01:10 1,2 C 0,6 C 0,0 C 97 % 1017,0 hPa 0,0 l/m 0 min 0 min 0 W/m 1,6 km/h (1 Bft) 100,00 %
13.01.2021 01:12 1,2 C 0,6 C 0,0 C 97 % 1017,0 hPa 0,0 l/m 0 min 0 min 0 W/m 0,0 km/h (0 Bft) 100,00 %
13.01.2021 01:14 1,2 C 0,6 C 0,0 C 97 % 1017,0 hPa 0,0 l/m 0 min 0 min 0 W/m 1,6 km/h (1 Bft) 100,00 %
13.01.2021 01:16 1,2 C 0,6 C 0,0 C 97 % 1017,1 hPa 0,0 l/m 0 min 0 min 0 W/m 1,6 km/h (1 Bft) 100,00 %
13.01.2021 01:18 1,2 C 0,6 C 0,0 C 97 % 1017,1 hPa 0,0 l/m 0 min 0 min 0 W/m 1,6 km/h (1 Bft) 100,00 %
13.01.2021 01:20 1,2 C 0,6 C 0,0 C 97 % 1017,1 hPa 0,0 l/m 0 min 0 min 0 W/m 0,0 km/h (0 Bft) 100,00 %
13.01.2021 01:22 1,2 C 0,6 C 0,0 C 97 % 1017,0 hPa 0,0 l/m 0 min 0 min 0 W/m 1,6 km/h (1 Bft) 100,00 %
13.01.2021 01:24 1,2 C 0,6 C 0,0 C 97 % 1017,1 hPa 0,0 l/m 0 min 0 min 0 W/m 0,0 km/h (0 Bft) 100,00 %
13.01.2021 01:26 1,2 C 0,6 C 0,0 C 97 % 1017,1 hPa 0,0 l/m 0 min 0 min 0 W/m 1,6 km/h (1 Bft) 100,00 %
13.01.2021 01:28 1,2 C 0,6 C 0,0 C 97 % 1017,1 hPa 0,0 l/m 0 min 0 min 0 W/m 0,0 km/h (0 Bft) 100,00 %
13.01.2021 01:30 1,1 C 0,6 C 0,0 C 97 % 1017,0 hPa 0,0 l/m 0 min 0 min 0 W/m 1,6 km/h (1 Bft) 97,87 %
13.01.2021 01:32 1,1 C 0,6 C 0,0 C 97 % 1017,1 hPa 0,0 l/m 0 min 0 min 0 W/m 3,2 km/h (1 Bft) 97,87 %
13.01.2021 01:34 1,1 C 0,6 C 0,0 C 97 % 1017,0 hPa 0,0 l/m 0 min 0 min 0 W/m 1,6 km/h (1 Bft) 100,00 %
13.01.2021 01:36 1,1 C 0,6 C 0,0 C 97 % 1017,1 hPa 0,0 l/m 0 min 0 min 0 W/m 1,6 km/h (1 Bft) 100,00 %
13.01.2021 01:38 1,1 C 0,6 C 0,0 C 97 % 1017,1 hPa 0,0 l/m 0 min 0 min 0 W/m 1,6 km/h (1 Bft) 100,00 %
13.01.2021 01:40 1,1 C 0,6 C 0,0 C 97 % 1017,1 hPa 0,0 l/m 0 min 0 min 0 W/m 0,0 km/h (0 Bft) 100,00 %
13.01.2021 01:42 1,1 C 0,6 C 0,0 C 97 % 1017,1 hPa 0,0 l/m 0 min 0 min 0 W/m 0,0 km/h (0 Bft) 97,87 %
13.01.2021 01:44 1,1 C 0,6 C 0,0 C 97 % 1017,1 hPa 0,0 l/m 0 min 0 min 0 W/m 0,0 km/h (0 Bft) 100,00 %
13.01.2021 01:46 1,1 C 0,6 C 0,0 C 97 % 1017,1 hPa 0,0 l/m 0 min 0 min 0 W/m 0,0 km/h (0 Bft) 100,00 %
13.01.2021 01:48 1,1 C 0,6 C 0,0 C 97 % 1017,0 hPa 0,0 l/m 0 min 0 min 0 W/m 0,0 km/h (0 Bft) 100,00 %
13.01.2021 01:50 1,1 C 0,6 C 0,0 C 97 % 1017,0 hPa 0,0 l/m 0 min 0 min 0 W/m 0,0 km/h (0 Bft) 100,00 %
13.01.2021 01:52 1,1 C 0,6 C 0,0 C 96 % 1017,0 hPa 0,0 l/m 0 min 0 min 0 W/m 0,0 km/h (0 Bft) 100,00 %
13.01.2021 01:54 1,0 C 0,6 C 0,0 C 96 % 1017,1 hPa 0,0 l/m 0 min 0 min 0 W/m 1,6 km/h (1 Bft) 97,87 %
13.01.2021 01:56 1,0 C 0,6 C 0,0 C 96 % 1017,2 hPa 0,0 l/m 0 min 0 min 0 W/m 1,6 km/h (1 Bft) 100,00 %
13.01.2021 01:58 1,0 C 0,6 C 0,0 C 96 % 1017,1 hPa 0,0 l/m 0 min 0 min 0 W/m 1,6 km/h (1 Bft) 100,00 %
13.01.2021 02:00 1,0 C 0,6 C 0,0 C 96 % 1017,1 hPa 0,0 l/m 0 min 0 min 0 W/m 1,6 km/h (1 Bft) 100,00 %
13.01.2021 02:02 1,0 C 0,6 C -0,5 C 96 % 1017,1 hPa 0,0 l/m 0 min 0 min 0 W/m 1,6 km/h (1 Bft) 100,00 %
13.01.2021 02:04 1,0 C 0,6 C 0,0 C 96 % 1017,1 hPa 0,0 l/m 0 min 0 min 0 W/m 0,0 km/h (0 Bft) 97,37 %
13.01.2021 02:06 1,0 C 0,6 C 0,0 C 96 % 1017,1 hPa 0,0 l/m 0 min 0 min 0 W/m 1,6 km/h (1 Bft) 100,00 %
13.01.2021 02:08 1,0 C 0,6 C 0,0 C 96 % 1017,1 hPa 0,0 l/m 0 min 0 min 0 W/m 0,0 km/h (0 Bft) 100,00 %
13.01.2021 02:10 1,0 C 0,6 C 0,0 C 96 % 1017,1 hPa 0,0 l/m 0 min 0 min 0 W/m 0,0 km/h (0 Bft) 100,00 %
13.01.2021 02:12 1,0 C 0,6 C 0,0 C 96 % 1017,1 hPa 0,0 l/m 0 min 0 min 0 W/m 4,8 km/h (1 Bft) 100,00 %
13.01.2021 02:14 1,0 C 0,6 C 0,0 C 96 % 1017,1 hPa 0,0 l/m 0 min 0 min 0 W/m 0,0 km/h (0 Bft) 97,87 %
13.01.2021 02:16 1,0 C 0,6 C -0,5 C 96 % 1017,0 hPa 0,0 l/m 0 min 0 min 0 W/m 0,0 km/h (0 Bft) 93,62 %
13.01.2021 02:18 1,0 C 0,6 C -0,5 C 96 % 1017,1 hPa 0,0 l/m 0 min 0 min 0 W/m 0,0 km/h (0 Bft) 95,74 %
13.01.2021 02:20 1,0 C 0,6 C 0,0 C 96 % 1017,1 hPa 0,0 l/m 0 min 0 min 0 W/m 0,0 km/h (0 Bft) 97,87 %
13.01.2021 02:22 1,0 C 0,6 C -0,5 C 96 % 1017,1 hPa 0,0 l/m 0 min 0 min 0 W/m 1,6 km/h (1 Bft) 97,92 %
13.01.2021 02:24 1,0 C 0,6 C -0,5 C 96 % 1017,1 hPa 0,0 l/m 0 min 0 min 0 W/m 1,6 km/h (1 Bft) 97,87 %
13.01.2021 02:26 0,9 C 0,6 C -0,5 C 96 % 1017,1 hPa 0,0 l/m 0 min 0 min 0 W/m 0,0 km/h (0 Bft) 95,83 %
13.01.2021 02:28 0,9 C 0,6 C -0,5 C 96 % 1017,1 hPa 0,0 l/m 0 min 0 min 0 W/m 0,0 km/h (0 Bft) 95,74 %
13.01.2021 02:30 0,9 C 0,6 C -0,5 C 96 % 1017,1 hPa 0,0 l/m 0 min 0 min 0 W/m 0,0 km/h (0 Bft) 95,65 %
13.01.2021 02:32 0,9 C 0,6 C -0,5 C 96 % 1017,1 hPa 0,0 l/m 0 min 0 min 0 W/m 1,6 km/h (1 Bft) 95,74 %
13.01.2021 02:34 0,9 C 0,6 C -0,5 C 96 % 1017,1 hPa 0,0 l/m 0 min 0 min 0 W/m 0,0 km/h (0 Bft) 95,74 %
13.01.2021 02:36 0,9 C 0,6 C -0,5 C 96 % 1017,1 hPa 0,0 l/m 0 min 0 min 0 W/m 0,0 km/h (0 Bft) 93,62 %
13.01.2021 02:38 0,9 C 0,6 C -0,5 C 96 % 1017,1 hPa 0,0 l/m 0 min 0 min 0 W/m 0,0 km/h (0 Bft) 95,74 %
13.01.2021 02:40 0,9 C 0,6 C -0,5 C 96 % 1017,1 hPa 0,0 l/m 0 min 0 min 0 W/m 1,6 km/h (1 Bft) 93,62 %
13.01.2021 02:42 0,9 C 0,0 C -0,5 C 96 % 1017,1 hPa 0,0 l/m 0 min 0 min 0 W/m 1,6 km/h (1 Bft) 95,65 %
13.01.2021 02:44 0,9 C 0,0 C -0,5 C 96 % 1017,2 hPa 0,0 l/m 0 min 0 min 0 W/m 0,0 km/h (0 Bft) 95,74 %
13.01.2021 02:46 0,9 C 0,6 C -0,5 C 96 % 1017,2 hPa 0,0 l/m 0 min 0 min 0 W/m 0,0 km/h (0 Bft) 95,74 %
13.01.2021 02:48 0,8 C 0,6 C -0,5 C 96 % 1017,2 hPa 0,0 l/m 0 min 0 min 0 W/m 0,0 km/h (0 Bft) 97,87 %
13.01.2021 02:50 0,8 C 0,6 C -0,5 C 96 % 1017,3 hPa 0,0 l/m 0 min 0 min 0 W/m 1,6 km/h (1 Bft) 95,74 %
13.01.2021 02:52 0,8 C 0,6 C -0,5 C 96 % 1017,3 hPa 0,0 l/m 0 min 0 min 0 W/m 0,0 km/h (0 Bft) 95,65 %
13.01.2021 02:54 0,8 C 0,6 C -0,5 C 96 % 1017,3 hPa 0,0 l/m 0 min 0 min 0 W/m 1,6 km/h (1 Bft) 95,74 %
13.01.2021 02:56 0,8 C 0,6 C -0,5 C 96 % 1017,3 hPa 0,0 l/m 0 min 0 min 0 W/m 0,0 km/h (0 Bft) 95,74 %
13.01.2021 02:58 0,8 C 0,6 C -0,5 C 96 % 1017,3 hPa 0,0 l/m 0 min 0 min 0 W/m 0,0 km/h (0 Bft) 93,62 %
13.01.2021 03:00 0,8 C 0,6 C -0,5 C 96 % 1017,3 hPa 0,0 l/m 0 min 0 min 0 W/m 0,0 km/h (0 Bft) 97,87 %
13.01.2021 03:02 0,8 C 0,6 C -0,5 C 96 % 1017,3 hPa 0,0 l/m 0 min 0 min 0 W/m 1,6 km/h (1 Bft) 95,74 %
13.01.2021 03:04 0,8 C 0,6 C -0,5 C 96 % 1017,3 hPa 0,0 l/m 0 min 0 min 0 W/m 1,6 km/h (1 Bft) 91,30 %
13.01.2021 03:06 0,8 C 0,6 C -0,5 C 96 % 1017,3 hPa 0,0 l/m 0 min 0 min 0 W/m 0,0 km/h (0 Bft) 97,87 %
13.01.2021 03:08 0,8 C 0,6 C -0,5 C 96 % 1017,3 hPa 0,0 l/m 0 min 0 min 0 W/m 0,0 km/h (0 Bft) 95,74 %
13.01.2021 03:10 0,8 C 0,6 C -0,5 C 96 % 1017,3 hPa 0,0 l/m 0 min 0 min 0 W/m 0,0 km/h (0 Bft) 95,74 %
13.01.2021 03:12 0,8 C 0,6 C -0,5 C 96 % 1017,3 hPa 0,0 l/m 0 min 0 min 0 W/m 0,0 km/h (0 Bft) 95,74 %
13.01.2021 03:14 0,8 C 0,6 C -0,5 C 96 % 1017,3 hPa 0,0 l/m 0 min 0 min 0 W/m 0,0 km/h (0 Bft) 95,74 %
13.01.2021 03:16 0,8 C 0,6 C -0,5 C 96 % 1017,3 hPa 0,0 l/m 0 min 0 min 0 W/m 0,0 km/h (0 Bft) 95,65 %
13.01.2021 03:18 0,8 C 0,6 C 0,0 C 96 % 1017,3 hPa 0,0 l/m 0 min 0 min 0 W/m 1,6 km/h (1 Bft) 93,62 %
13.01.2021 03:20 0,8 C 0,6 C 0,0 C 96 % 1017,3 hPa 0,0 l/m 0 min 0 min 0 W/m 0,0 km/h (0 Bft) 95,74 %
13.01.2021 03:22 0,9 C 0,6 C 0,0 C 96 % 1017,3 hPa 0,0 l/m 0 min 0 min 0 W/m 1,6 km/h (1 Bft) 95,74 %
13.01.2021 03:24 0,9 C 0,6 C 0,0 C 96 % 1017,3 hPa 0,0 l/m 0 min 0 min 0 W/m 0,0 km/h (0 Bft) 97,87 %
13.01.2021 03:26 0,9 C 0,6 C 0,0 C 96 % 1017,4 hPa 0,0 l/m 0 min 0 min 0 W/m 1,6 km/h (1 Bft) 97,87 %
13.01.2021 03:28 0,9 C 0,6 C 0,0 C 96 % 1017,3 hPa 0,0 l/m 0 min 0 min 0 W/m 0,0 km/h (0 Bft) 97,83 %
13.01.2021 03:30 0,9 C 0,6 C 0,0 C 96 % 1017,3 hPa 0,0 l/m 0 min 0 min 0 W/m 1,6 km/h (1 Bft) 97,87 %
13.01.2021 03:32 0,9 C 0,6 C 0,0 C 96 % 1017,3 hPa 0,0 l/m 0 min 0 min 0 W/m 1,6 km/h (1 Bft) 97,87 %
13.01.2021 03:34 0,9 C 0,6 C 0,0 C 96 % 1017,3 hPa 0,0 l/m 0 min 0 min 0 W/m 3,2 km/h (1 Bft) 97,87 %
13.01.2021 03:36 1,0 C 0,6 C 0,0 C 96 % 1017,3 hPa 0,0 l/m 0 min 0 min 0 W/m 1,6 km/h (1 Bft) 97,87 %
13.01.2021 03:38 1,0 C 0,6 C 0,0 C 96 % 1017,3 hPa 0,0 l/m 0 min 0 min 0 W/m 0,0 km/h (0 Bft) 97,87 %
13.01.2021 03:40 1,0 C 0,6 C 0,0 C 96 % 1017,3 hPa 0,0 l/m 0 min 0 min 0 W/m 6,4 km/h (2 Bft) 95,65 %
13.01.2021 03:42 1,0 C 0,6 C 0,0 C 96 % 1017,4 hPa 0,0 l/m 0 min 0 min 0 W/m 0,0 km/h (0 Bft) 97,87 %
13.01.2021 03:44 1,0 C 0,6 C 0,0 C 96 % 1017,3 hPa 0,0 l/m 0 min 0 min 0 W/m 0,0 km/h (0 Bft) 97,87 %
13.01.2021 03:46 1,0 C 0,6 C 0,0 C 96 % 1017,4 hPa 0,0 l/m 0 min 0 min 0 W/m 0,0 km/h (0 Bft) 97,87 %
13.01.2021 03:48 1,0 C 0,6 C 0,0 C 96 % 1017,4 hPa 0,0 l/m 0 min 0 min 0 W/m 0,0 km/h (0 Bft) 97,87 %
13.01.2021 03:50 1,0 C 0,6 C 0,0 C 96 % 1017,5 hPa 0,0 l/m 0 min 0 min 0 W/m 1,6 km/h (1 Bft) 97,87 %
13.01.2021 03:52 1,0 C 0,6 C 0,0 C 96 % 1017,4 hPa 0,0 l/m 0 min 0 min 0 W/m 1,6 km/h (1 Bft) 95,65 %
13.01.2021 03:54 1,0 C 0,6 C 0,0 C 96 % 1017,4 hPa 0,0 l/m 0 min 0 min 0 W/m 0,0 km/h (0 Bft) 97,87 %
13.01.2021 03:56 1,0 C 0,6 C 0,0 C 96 % 1017,4 hPa 0,0 l/m 0 min 0 min 0 W/m 0,0 km/h (0 Bft) 97,87 %
13.01.2021 03:58 1,0 C 0,6 C 0,0 C 96 % 1017,5 hPa 0,0 l/m 0 min 0 min 0 W/m 0,0 km/h (0 Bft) 97,87 %
13.01.2021 04:00 1,0 C 0,6 C 0,0 C 96 % 1017,5 hPa 0,0 l/m 0 min 0 min 0 W/m 1,6 km/h (1 Bft) 97,87 %
13.01.2021 04:02 1,0 C 0,6 C 0,0 C 96 % 1017,5 hPa 0,0 l/m 0 min 0 min 0 W/m 0,0 km/h (0 Bft) 100,00 %
13.01.2021 04:04 1,0 C 0,6 C 0,0 C 96 % 1017,5 hPa 0,0 l/m 0 min 0 min 0 W/m 0,0 km/h (0 Bft) 95,65 %
13.01.2021 04:06 1,0 C 0,6 C 0,0 C 96 % 1017,5 hPa 0,0 l/m 0 min 0 min 0 W/m 0,0 km/h (0 Bft) 95,74 %
13.01.2021 04:08 1,0 C 0,6 C 0,0 C 96 % 1017,5 hPa 0,0 l/m 0 min 0 min 0 W/m 1,6 km/h (1 Bft) 97,87 %
13.01.2021 04:10 1,0 C 0,6 C 0,0 C 96 % 1017,6 hPa 0,0 l/m 0 min 0 min 0 W/m 1,6 km/h (1 Bft) 97,87 %
13.01.2021 04:12 1,0 C 0,6 C 0,0 C 96 % 1017,5 hPa 0,0 l/m 0 min 0 min 0 W/m 0,0 km/h (0 Bft) 97,87 %
13.01.2021 04:14 1,0 C 0,6 C 0,0 C 96 % 1017,5 hPa 0,0 l/m 0 min 0 min 0 W/m 3,2 km/h (1 Bft) 97,87 %
13.01.2021 04:16 1,0 C 0,6 C 0,0 C 96 % 1017,6 hPa 0,0 l/m 0 min 0 min 0 W/m 0,0 km/h (0 Bft) 95,65 %
13.01.2021 04:18 1,1 C 0,6 C 0,0 C 96 % 1017,6 hPa 0,0 l/m 0 min 0 min 0 W/m 1,6 km/h (1 Bft) 97,87 %
13.01.2021 04:20 1,1 C 0,6 C 0,0 C 96 % 1017,6 hPa 0,0 l/m 0 min 0 min 0 W/m 0,0 km/h (0 Bft) 97,87 %
13.01.2021 04:22 1,1 C 0,6 C 0,0 C 97 % 1017,7 hPa 0,0 l/m 0 min 0 min 0 W/m 1,6 km/h (1 Bft) 97,87 %
13.01.2021 04:24 1,1 C 0,6 C 0,0 C 97 % 1017,6 hPa 0,0 l/m 0 min 0 min 0 W/m 1,6 km/h (1 Bft) 95,74 %
13.01.2021 04:26 1,1 C 1,1 C 0,0 C 97 % 1017,6 hPa 0,0 l/m 0 min 0 min 0 W/m 0,0 km/h (0 Bft) 97,83 %
13.01.2021 04:28 1,1 C 1,1 C 0,0 C 97 % 1017,7 hPa 0,0 l/m 0 min 0 min 0 W/m 0,0 km/h (0 Bft) 97,87 %
13.01.2021 04:30 1,1 C 1,1 C 0,0 C 97 % 1017,7 hPa 0,0 l/m 0 min 0 min 0 W/m 0,0 km/h (0 Bft) 97,87 %
13.01.2021 04:32 1,2 C 1,1 C 0,0 C 97 % 1017,7 hPa 0,0 l/m 0 min 0 min 0 W/m 0,0 km/h (0 Bft) 93,62 %
13.01.2021 04:34 1,2 C 1,1 C 0,0 C 97 % 1017,6 hPa 0,0 l/m 0 min 0 min 0 W/m 0,0 km/h (0 Bft) 95,74 %
13.01.2021 04:36 1,2 C 1,1 C 0,6 C 97 % 1017,6 hPa 0,0 l/m 0 min 0 min 0 W/m 0,0 km/h (0 Bft) 97,87 %
13.01.2021 04:38 1,3 C 1,1 C 0,6 C 97 % 1017,5 hPa 0,0 l/m 0 min 0 min 0 W/m 1,6 km/h (1 Bft) 97,83 %
13.01.2021 04:40 1,3 C 1,1 C 0,6 C 97 % 1017,5 hPa 0,0 l/m 0 min 0 min 0 W/m 0,0 km/h (0 Bft) 97,87 %
13.01.2021 04:42 1,3 C 1,1 C 0,6 C 97 % 1017,5 hPa 0,0 l/m 0 min 0 min 0 W/m 0,0 km/h (0 Bft) 95,74 %
13.01.2021 04:44 1,3 C 1,1 C 0,6 C 97 % 1017,5 hPa 0,0 l/m 0 min 0 min 0 W/m 0,0 km/h (0 Bft) 93,62 %
13.01.2021 04:46 1,3 C 1,1 C 0,6 C 97 % 1017,5 hPa 0,0 l/m 0 min 0 min 0 W/m 1,6 km/h (1 Bft) 95,74 %
13.01.2021 04:48 1,3 C 1,1 C 0,6 C 97 % 1017,6 hPa 0,0 l/m 0 min 0 min 0 W/m 3,2 km/h (1 Bft) 95,74 %
13.01.2021 04:50 1,4 C 1,1 C 0,6 C 97 % 1017,6 hPa 0,0 l/m 0 min 0 min 0 W/m 3,2 km/h (1 Bft) 95,65 %
13.01.2021 04:52 1,4 C 1,1 C 0,6 C 97 % 1017,6 hPa 0,0 l/m 0 min 0 min 0 W/m 1,6 km/h (1 Bft) 95,74 %
13.01.2021 04:54 1,4 C 1,1 C 0,6 C 97 % 1017,6 hPa 0,0 l/m 0 min 0 min 0 W/m 6,4 km/h (2 Bft) 95,74 %
13.01.2021 04:56 1,4 C 1,1 C 0,6 C 97 % 1017,5 hPa 0,0 l/m 0 min 0 min 0 W/m 0,0 km/h (0 Bft) 93,62 %
13.01.2021 04:58 1,4 C 1,1 C 0,6 C 97 % 1017,5 hPa 0,0 l/m 0 min 0 min 0 W/m 0,0 km/h (0 Bft) 95,74 %
13.01.2021 05:00 1,4 C 1,1 C 0,6 C 97 % 1017,5 hPa 0,0 l/m 0 min 0 min 0 W/m 0,0 km/h (0 Bft) 95,74 %
13.01.2021 05:02 1,4 C 1,1 C 0,6 C 97 % 1017,5 hPa 0,0 l/m 0 min 0 min 0 W/m 1,6 km/h (1 Bft) 95,65 %
13.01.2021 05:04 1,4 C 1,1 C 0,6 C 97 % 1017,5 hPa 0,0 l/m 0 min 0 min 0 W/m 1,6 km/h (1 Bft) 95,74 %
13.01.2021 05:06 1,4 C 1,1 C 0,6 C 97 % 1017,5 hPa 0,0 l/m 0 min 0 min 0 W/m 0,0 km/h (0 Bft) 95,74 %
13.01.2021 05:08 1,4 C 1,1 C 0,6 C 97 % 1017,5 hPa 0,0 l/m 0 min 0 min 0 W/m 0,0 km/h (0 Bft) 93,62 %
13.01.2021 05:10 1,4 C 1,1 C 0,6 C 97 % 1017,5 hPa 0,0 l/m 0 min 0 min 0 W/m 11,3 km/h (2 Bft) 93,62 %
13.01.2021 05:12 1,4 C 1,1 C 0,6 C 97 % 1017,5 hPa 0,0 l/m 0 min 0 min 0 W/m 6,4 km/h (2 Bft) 93,62 %
13.01.2021 05:14 1,4 C 1,1 C 0,6 C 97 % 1017,5 hPa 0,0 l/m 0 min 0 min 0 W/m 1,6 km/h (1 Bft) 95,65 %
13.01.2021 05:16 1,4 C 1,1 C 0,6 C 97 % 1017,5 hPa 0,0 l/m 0 min 0 min 0 W/m 4,8 km/h (1 Bft) 95,74 %
13.01.2021 05:18 1,5 C 1,1 C 0,6 C 97 % 1017,6 hPa 0,0 l/m 0 min 0 min 0 W/m 0,0 km/h (0 Bft) 95,74 %
13.01.2021 05:20 1,5 C 1,1 C 0,6 C 97 % 1017,7 hPa 0,0 l/m 0 min 2 min 0 W/m 3,2 km/h (1 Bft) 93,62 %
13.01.2021 05:22 1,5 C 1,1 C 0,6 C 97 % 1017,7 hPa 0,0 l/m 0 min 2 min 0 W/m 6,4 km/h (2 Bft) 95,74 %
13.01.2021 05:24 1,5 C 1,1 C 0,6 C 97 % 1017,7 hPa 0,0 l/m 0 min 2 min 0 W/m 1,6 km/h (1 Bft) 95,74 %
13.01.2021 05:26 1,5 C 0,6 C 0,6 C 97 % 1017,7 hPa 0,2 l/m 0 min 2 min 0 W/m 1,6 km/h (1 Bft) 93,48 %
13.01.2021 05:28 1,5 C 0,6 C 0,6 C 97 % 1017,7 hPa 0,0 l/m 0 min 2 min 0 W/m 1,6 km/h (1 Bft) 95,74 %
13.01.2021 05:30 1,6 C 0,6 C 0,6 C 97 % 1017,6 hPa 0,0 l/m 0 min 2 min 0 W/m 0,0 km/h (0 Bft) 93,62 %
13.01.2021 05:32 1,6 C 0,6 C 0,6 C 97 % 1017,6 hPa 0,0 l/m 0 min 2 min 0 W/m 3,2 km/h (1 Bft) 95,74 %
13.01.2021 05:34 1,6 C 0,6 C 0,0 C 97 % 1017,6 hPa 0,2 l/m 0 min 2 min 0 W/m 3,2 km/h (1 Bft) 93,62 %
13.01.2021 05:36 1,6 C 0,6 C 0,6 C 97 % 1017,6 hPa 0,0 l/m 0 min 2 min 0 W/m 0,0 km/h (0 Bft) 95,74 %
13.01.2021 05:38 1,6 C 0,6 C 0,6 C 97 % 1017,6 hPa 0,0 l/m 0 min 2 min 0 W/m 1,6 km/h (1 Bft) 95,65 %
13.01.2021 05:40 1,6 C 0,6 C 0,0 C 97 % 1017,5 hPa 0,0 l/m 0 min 2 min 0 W/m 3,2 km/h (1 Bft) 95,74 %
13.01.2021 05:42 1,6 C 0,6 C 0,6 C 97 % 1017,5 hPa 0,0 l/m 0 min 0 min 0 W/m 0,0 km/h (0 Bft) 95,74 %
13.01.2021 05:44 1,6 C 0,6 C 0,6 C 97 % 1017,5 hPa 0,0 l/m 0 min 0 min 0 W/m 0,0 km/h (0 Bft) 93,62 %
13.01.2021 05:46 1,6 C 0,6 C 0,6 C 97 % 1017,5 hPa 0,0 l/m 0 min 0 min 0 W/m 0,0 km/h (0 Bft) 95,74 %
13.01.2021 05:48 1,6 C 0,6 C 0,6 C 97 % 1017,5 hPa 0,0 l/m 0 min 0 min 0 W/m 0,0 km/h (0 Bft) 93,62 %
13.01.2021 05:50 1,6 C 0,6 C 0,6 C 97 % 1017,4 hPa 0,0 l/m 0 min 0 min 0 W/m 1,6 km/h (1 Bft) 95,65 %
13.01.2021 05:52 1,6 C 0,6 C 0,6 C 97 % 1017,4 hPa 0,0 l/m 0 min 0 min 0 W/m 1,6 km/h (1 Bft) 91,49 %
13.01.2021 05:54 1,6 C 0,6 C 0,6 C 97 % 1017,5 hPa 0,0 l/m 0 min 0 min 0 W/m 0,0 km/h (0 Bft) 93,62 %
13.01.2021 05:56 1,6 C 0,6 C 0,6 C 97 % 1017,4 hPa 0,0 l/m 0 min 0 min 0 W/m 0,0 km/h (0 Bft) 95,74 %
13.01.2021 05:58 1,6 C 1,1 C 0,6 C 97 % 1017,5 hPa 0,0 l/m 0 min 0 min 0 W/m 0,0 km/h (0 Bft) 95,74 %
13.01.2021 06:00 1,6 C 1,1 C 0,6 C 97 % 1017,4 hPa 0,0 l/m 0 min 0 min 0 W/m 1,6 km/h (1 Bft) 95,65 %
13.01.2021 06:02 1,6 C 1,1 C 0,6 C 97 % 1017,4 hPa 0,0 l/m 0 min 0 min 0 W/m 0,0 km/h (0 Bft) 95,74 %
13.01.2021 06:04 1,6 C 1,1 C 0,6 C 97 % 1017,4 hPa 0,0 l/m 0 min 0 min 0 W/m 3,2 km/h (1 Bft) 95,74 %
13.01.2021 06:08 1,6 C 1,1 C 0,6 C 97 % 1017,3 hPa 0,0 l/m 0 min 0 min 0 W/m 3,2 km/h (1 Bft) 95,74 %
13.01.2021 06:10 1,6 C 1,1 C 0,6 C 97 % 1017,4 hPa 0,0 l/m 0 min 0 min 0 W/m 0,0 km/h (0 Bft) 93,62 %
13.01.2021 06:12 1,6 C 1,1 C 0,6 C 97 % 1017,4 hPa 0,0 l/m 0 min 0 min 0 W/m 0,0 km/h (0 Bft) 95,65 %
13.01.2021 06:14 1,7 C 1,1 C 0,6 C 97 % 1017,4 hPa 0,0 l/m 0 min 0 min 0 W/m 1,6 km/h (1 Bft) 95,74 %
13.01.2021 06:16 1,7 C 1,1 C 0,6 C 97 % 1017,3 hPa 0,0 l/m 0 min 0 min 0 W/m 0,0 km/h (0 Bft) 93,62 %
13.01.2021 06:18 1,7 C 1,1 C 0,6 C 97 % 1017,3 hPa 0,0 l/m 0 min 0 min 0 W/m 0,0 km/h (0 Bft) 97,87 %
13.01.2021 06:20 1,7 C 1,1 C 0,6 C 97 % 1017,2 hPa 0,0 l/m 0 min 0 min 0 W/m 0,0 km/h (0 Bft) 97,87 %
13.01.2021 06:22 1,7 C 1,1 C 0,6 C 97 % 1017,3 hPa 0,0 l/m 0 min 0 min 0 W/m 1,6 km/h (1 Bft) 93,62 %
13.01.2021 06:24 1,7 C 1,1 C 0,6 C 97 % 1017,3 hPa 0,0 l/m 0 min 0 min 0 W/m 0,0 km/h (0 Bft) 97,83 %
13.01.2021 06:26 1,7 C 1,1 C 0,6 C 97 % 1017,3 hPa 0,0 l/m 0 min 2 min 0 W/m 0,0 km/h (0 Bft) 97,87 %
13.01.2021 06:28 1,7 C 1,1 C 0,6 C 97 % 1017,3 hPa 0,0 l/m 0 min 0 min 0 W/m 1,6 km/h (1 Bft) 95,74 %
13.01.2021 06:30 1,7 C 1,1 C 0,6 C 97 % 1017,2 hPa 0,0 l/m 0 min 0 min 0 W/m 0,0 km/h (0 Bft) 97,87 %
13.01.2021 06:32 1,7 C 1,1 C 0,6 C 97 % 1017,2 hPa 0,0 l/m 0 min 0 min 0 W/m 1,6 km/h (1 Bft) 97,87 %
13.01.2021 06:34 1,7 C 1,1 C 0,6 C 97 % 1017,2 hPa 0,0 l/m 0 min 0 min 0 W/m 0,0 km/h (0 Bft) 93,62 %
13.01.2021 06:36 1,7 C 1,1 C 0,6 C 97 % 1017,2 hPa 0,0 l/m 0 min 0 min 0 W/m 1,6 km/h (1 Bft) 97,83 %
13.01.2021 06:38 1,7 C 1,1 C 0,6 C 97 % 1017,2 hPa 0,0 l/m 0 min 0 min 0 W/m 0,0 km/h (0 Bft) 97,87 %
13.01.2021 06:40 1,8 C 1,1 C 0,6 C 97 % 1017,2 hPa 0,0 l/m 0 min 0 min 0 W/m 1,6 km/h (1 Bft) 97,87 %
13.01.2021 06:42 1,8 C 1,1 C 0,6 C 97 % 1017,2 hPa 0,0 l/m 0 min 0 min 0 W/m 0,0 km/h (0 Bft) 97,87 %
13.01.2021 06:44 1,8 C 1,1 C 0,6 C 97 % 1017,2 hPa 0,0 l/m 0 min 0 min 0 W/m 0,0 km/h (0 Bft) 97,87 %
13.01.2021 06:46 1,8 C 1,1 C 0,6 C 97 % 1017,2 hPa 0,0 l/m 0 min 0 min 0 W/m 0,0 km/h (0 Bft) 97,87 %
13.01.2021 06:48 1,8 C 1,1 C 0,6 C 97 % 1017,2 hPa 0,0 l/m 0 min 0 min 0 W/m 6,4 km/h (2 Bft) 97,83 %
13.01.2021 06:50 1,8 C 1,1 C 0,6 C 97 % 1017,2 hPa 0,0 l/m 0 min 0 min 0 W/m 0,0 km/h (0 Bft) 97,87 %
13.01.2021 06:52 1,8 C 1,1 C 0,6 C 97 % 1017,1 hPa 0,0 l/m 0 min 0 min 0 W/m 3,2 km/h (1 Bft) 100,00 %
13.01.2021 06:54 1,8 C 1,1 C 0,6 C 97 % 1017,1 hPa 0,0 l/m 0 min 0 min 0 W/m 0,0 km/h (0 Bft) 95,74 %
13.01.2021 06:56 1,8 C 1,1 C 0,6 C 97 % 1017,1 hPa 0,0 l/m 0 min 0 min 0 W/m 0,0 km/h (0 Bft) 100,00 %
13.01.2021 06:58 1,8 C 1,1 C 1,2 C 97 % 1017,1 hPa 0,0 l/m 0 min 0 min 0 W/m 3,2 km/h (1 Bft) 97,87 %
13.01.2021 07:00 1,9 C 1,1 C 1,2 C 97 % 1017,1 hPa 0,0 l/m 0 min 0 min 0 W/m 0,0 km/h (0 Bft) 97,83 %
13.01.2021 07:02 1,9 C 1,1 C 1,2 C 97 % 1017,0 hPa 0,0 l/m 0 min 0 min 0 W/m 0,0 km/h (0 Bft) 100,00 %
13.01.2021 07:04 1,9 C 1,1 C 1,2 C 97 % 1017,0 hPa 0,0 l/m 0 min 0 min 0 W/m 1,6 km/h (1 Bft) 97,87 %
13.01.2021 07:06 1,9 C 1,1 C 1,2 C 97 % 1017,0 hPa 0,0 l/m 0 min 0 min 0 W/m 1,6 km/h (1 Bft) 100,00 %
13.01.2021 07:08 1,9 C 1,1 C 0,6 C 97 % 1017,1 hPa 0,0 l/m 0 min 0 min 0 W/m 0,0 km/h (0 Bft) 97,87 %
13.01.2021 07:10 1,9 C 1,1 C 0,6 C 97 % 1017,1 hPa 0,0 l/m 0 min 0 min 0 W/m 0,0 km/h (0 Bft) 97,87 %
13.01.2021 07:12 1,9 C 1,1 C 0,6 C 97 % 1017,1 hPa 0,0 l/m 0 min 0 min 0 W/m 4,8 km/h (1 Bft) 100,00 %
13.01.2021 07:14 1,9 C 1,1 C 0,6 C 97 % 1017,0 hPa 0,0 l/m 0 min 0 min 0 W/m 0,0 km/h (0 Bft) 100,00 %
13.01.2021 07:16 1,9 C 1,1 C 0,6 C 97 % 1017,0 hPa 0,0 l/m 0 min 0 min 0 W/m 0,0 km/h (0 Bft) 100,00 %
13.01.2021 07:18 1,9 C 1,1 C 0,6 C 97 % 1017,0 hPa 0,0 l/m 0 min 0 min 0 W/m 6,4 km/h (2 Bft) 97,87 %
13.01.2021 07:20 1,9 C 1,1 C 1,2 C 97 % 1017,0 hPa 0,0 l/m 0 min 0 min 0 W/m 3,2 km/h (1 Bft) 97,92 %
13.01.2021 07:22 1,9 C 1,1 C 1,2 C 97 % 1017,0 hPa 0,0 l/m 0 min 0 min 0 W/m 0,0 km/h (0 Bft) 95,74 %
13.01.2021 07:24 1,9 C 1,1 C 1,2 C 97 % 1017,0 hPa 0,0 l/m 0 min 0 min 0 W/m 8,0 km/h (2 Bft) 97,87 %
13.01.2021 07:26 1,9 C 1,1 C 1,2 C 97 % 1017,1 hPa 0,0 l/m 0 min 0 min 0 W/m 1,6 km/h (1 Bft) 27,59 %
13.01.2021 07:28 1,9 C 1,1 C 1,2 C 97 % 1017,0 hPa 0,0 l/m 0 min 0 min 0 W/m 1,6 km/h (1 Bft) 93,48 %
13.01.2021 07:30 1,9 C 1,1 C 1,2 C 97 % 1017,0 hPa 0,0 l/m 0 min 0 min 0 W/m 1,6 km/h (1 Bft) 97,92 %
13.01.2021 07:32 1,9 C 1,1 C 1,2 C 97 % 1017,0 hPa 0,0 l/m 0 min 0 min 0 W/m 0,0 km/h (0 Bft) 97,87 %
13.01.2021 07:34 1,9 C 1,1 C 1,2 C 97 % 1017,0 hPa 0,0 l/m 0 min 0 min 0 W/m 1,6 km/h (1 Bft) 97,87 %
13.01.2021 07:36 1,9 C 1,1 C 1,2 C 97 % 1017,0 hPa 0,0 l/m 0 min 0 min 0 W/m 1,6 km/h (1 Bft) 95,65 %
13.01.2021 07:38 1,9 C 1,1 C 0,6 C 97 % 1017,0 hPa 0,0 l/m 0 min 0 min 0 W/m 3,2 km/h (1 Bft) 95,74 %
13.01.2021 07:40 1,9 C 1,1 C 0,6 C 97 % 1017,1 hPa 0,0 l/m 0 min 0 min 0 W/m 0,0 km/h (0 Bft) 97,87 %
13.01.2021 07:42 1,9 C 1,1 C 0,6 C 97 % 1017,0 hPa 0,0 l/m 0 min 0 min 0 W/m 6,4 km/h (2 Bft) 97,87 %
13.01.2021 07:44 1,9 C 1,1 C 0,6 C 97 % 1017,0 hPa 0,0 l/m 0 min 0 min 0 W/m 3,2 km/h (1 Bft) 97,87 %
13.01.2021 07:46 1,9 C 1,1 C 0,6 C 97 % 1017,0 hPa 0,0 l/m 0 min 0 min 0 W/m 1,6 km/h (1 Bft) 97,87 %
13.01.2021 07:48 1,9 C 1,1 C 0,6 C 97 % 1017,1 hPa 0,0 l/m 0 min 0 min 0 W/m 1,6 km/h (1 Bft) 93,48 %
13.01.2021 07:50 1,9 C 1,1 C 0,6 C 97 % 1017,0 hPa 0,0 l/m 0 min 0 min 0 W/m 3,2 km/h (1 Bft) 97,87 %
13.01.2021 07:52 1,9 C 1,1 C 0,6 C 97 % 1017,0 hPa 0,0 l/m 0 min 0 min 0 W/m 9,7 km/h (2 Bft) 95,74 %
13.01.2021 07:54 1,9 C 1,1 C 0,6 C 97 % 1017,0 hPa 0,0 l/m 0 min 0 min 0 W/m 0,0 km/h (0 Bft) 97,87 %
13.01.2021 07:56 1,9 C 1,1 C 0,6 C 97 % 1017,0 hPa 0,0 l/m 0 min 0 min 0 W/m 3,2 km/h (1 Bft) 97,87 %
13.01.2021 07:58 1,9 C 1,1 C 0,6 C 97 % 1017,0 hPa 0,0 l/m 0 min 0 min 0 W/m 9,7 km/h (2 Bft) 93,62 %
13.01.2021 08:00 1,9 C 1,1 C 0,6 C 97 % 1017,0 hPa 0,0 l/m 0 min 0 min 0 W/m 4,8 km/h (1 Bft) 97,83 %
13.01.2021 08:02 1,8 C 1,1 C 0,6 C 97 % 1017,0 hPa 0,0 l/m 0 min 0 min 0 W/m 3,2 km/h (1 Bft) 97,87 %
13.01.2021 08:04 1,8 C 1,1 C 0,6 C 97 % 1017,0 hPa 0,0 l/m 0 min 0 min 0 W/m 0,0 km/h (0 Bft) 100,00 %
13.01.2021 08:06 1,8 C 1,1 C 0,6 C 97 % 1017,0 hPa 0,0 l/m 0 min 0 min 0 W/m 0,0 km/h (0 Bft) 100,00 %
13.01.2021 08:08 1,8 C 1,1 C 0,6 C 97 % 1017,0 hPa 0,0 l/m 0 min 0 min 0 W/m 0,0 km/h (0 Bft) 97,87 %
13.01.2021 08:10 1,8 C 1,1 C 0,6 C 97 % 1017,1 hPa 0,0 l/m 0 min 0 min 0 W/m 6,4 km/h (2 Bft) 100,00 %
13.01.2021 08:12 1,8 C 1,1 C 0,6 C 97 % 1017,0 hPa 0,0 l/m 0 min 0 min 0 W/m 3,2 km/h (1 Bft) 97,87 %
13.01.2021 08:14 1,7 C 1,1 C 0,6 C 97 % 1017,1 hPa 0,0 l/m 0 min 0 min 0 W/m 0,0 km/h (0 Bft) 97,87 %
13.01.2021 08:16 1,7 C 1,1 C 0,6 C 97 % 1017,1 hPa 0,0 l/m 0 min 0 min 0 W/m 0,0 km/h (0 Bft) 95,74 %
13.01.2021 08:18 1,7 C 1,1 C 0,6 C 97 % 1017,1 hPa 0,0 l/m 0 min 0 min 0 W/m 1,6 km/h (1 Bft) 100,00 %
13.01.2021 08:20 1,6 C 1,1 C 0,6 C 97 % 1017,0 hPa 0,0 l/m 0 min 0 min 0 W/m 0,0 km/h (0 Bft) 100,00 %
13.01.2021 08:22 1,6 C 1,1 C 0,6 C 97 % 1017,0 hPa 0,0 l/m 0 min 0 min 0 W/m 9,7 km/h (2 Bft) 100,00 %
13.01.2021 08:24 1,6 C 1,1 C 0,6 C 97 % 1017,0 hPa 0,0 l/m 0 min 0 min 0 W/m 8,0 km/h (2 Bft) 100,00 %
13.01.2021 08:26 1,6 C 1,1 C 0,6 C 97 % 1017,1 hPa 0,0 l/m 0 min 0 min 0 W/m 0,0 km/h (0 Bft) 100,00 %
13.01.2021 08:28 1,6 C 1,1 C 0,6 C 97 % 1017,1 hPa 0,0 l/m 0 min 0 min 0 W/m 0,0 km/h (0 Bft) 97,87 %
13.01.2021 08:30 1,6 C 1,1 C 0,6 C 97 % 1017,1 hPa 0,0 l/m 0 min 0 min 0 W/m 0,0 km/h (0 Bft) 95,74 %
13.01.2021 08:32 1,6 C 1,1 C 0,6 C 97 % 1017,1 hPa 0,0 l/m 0 min 0 min 0 W/m 3,2 km/h (1 Bft) 97,56 %
13.01.2021 08:34 1,6 C 1,1 C 0,6 C 97 % 1017,1 hPa 0,0 l/m 0 min 0 min 0 W/m 1,6 km/h (1 Bft) 97,87 %
13.01.2021 08:36 1,6 C 1,1 C 0,6 C 97 % 1017,1 hPa 0,0 l/m 0 min 0 min 0 W/m 0,0 km/h (0 Bft) 95,74 %
13.01.2021 08:38 1,6 C 1,1 C 0,6 C 97 % 1017,1 hPa 0,0 l/m 0 min 0 min 0 W/m 11,3 km/h (2 Bft) 95,74 %
13.01.2021 08:40 1,6 C 1,1 C 0,6 C 97 % 1017,1 hPa 0,0 l/m 0 min 0 min 0 W/m 0,0 km/h (0 Bft) 97,92 %
13.01.2021 08:42 1,6 C 1,1 C 0,6 C 97 % 1017,1 hPa 0,0 l/m 0 min 0 min 4 W/m 0,0 km/h (0 Bft) 97,87 %
13.01.2021 08:44 1,6 C 1,1 C 0,6 C 97 % 1017,1 hPa 0,0 l/m 0 min 0 min 5 W/m 0,0 km/h (0 Bft) 97,87 %
13.01.2021 08:46 1,5 C 1,1 C 0,6 C 97 % 1017,1 hPa 0,0 l/m 0 min 0 min 5 W/m 6,4 km/h (2 Bft) 95,74 %
13.01.2021 08:48 1,5 C 1,1 C 0,6 C 97 % 1017,2 hPa 0,0 l/m 0 min 0 min 6 W/m 1,6 km/h (1 Bft) 97,87 %
13.01.2021 08:50 1,5 C 1,1 C 0,6 C 97 % 1017,1 hPa 0,0 l/m 0 min 0 min 7 W/m 1,6 km/h (1 Bft) 97,96 %
13.01.2021 08:52 1,5 C 1,1 C 0,6 C 97 % 1017,1 hPa 0,0 l/m 0 min 0 min 7 W/m 1,6 km/h (1 Bft) 97,83 %
13.01.2021 08:54 1,5 C 1,1 C 0,6 C 97 % 1017,2 hPa 0,0 l/m 0 min 0 min 8 W/m 1,6 km/h (1 Bft) 97,87 %
13.01.2021 08:56 1,5 C 1,1 C 0,6 C 97 % 1017,1 hPa 0,0 l/m 0 min 0 min 9 W/m 6,4 km/h (2 Bft) 97,87 %
13.01.2021 08:58 1,5 C 1,1 C 0,6 C 97 % 1017,1 hPa 0,0 l/m 0 min 0 min 10 W/m 3,2 km/h (1 Bft) 97,87 %
13.01.2021 09:00 1,5 C 1,1 C 0,6 C 97 % 1017,2 hPa 0,0 l/m 0 min 0 min 11 W/m 8,0 km/h (2 Bft) 97,87 %
13.01.2021 09:02 1,5 C 1,1 C 0,6 C 97 % 1017,2 hPa 0,0 l/m 0 min 0 min 11 W/m 1,6 km/h (1 Bft) 93,62 %
13.01.2021 09:07 1,5 C 1,1 C 0,6 C 97 % 1017,3 hPa 0,0 l/m 0 min 0 min 12 W/m 1,6 km/h (1 Bft) 92,86 %
13.01.2021 09:08 1,5 C 1,1 C 0,6 C 97 % 1017,3 hPa 0,0 l/m 0 min 0 min 12 W/m 1,6 km/h (1 Bft) 100,00 %
13.01.2021 09:10 1,5 C 1,1 C 0,6 C 97 % 1017,2 hPa 0,0 l/m 0 min 0 min 12 W/m 9,7 km/h (2 Bft) 100,00 %
13.01.2021 09:12 1,5 C 1,1 C 0,6 C 97 % 1017,2 hPa 0,0 l/m 0 min 0 min 11 W/m 9,7 km/h (2 Bft) 95,74 %
13.01.2021 09:14 1,5 C 1,1 C 0,6 C 97 % 1017,3 hPa 0,0 l/m 0 min 0 min 12 W/m 0,0 km/h (0 Bft) 97,83 %
13.01.2021 09:16 1,5 C 1,1 C 0,6 C 97 % 1017,2 hPa 0,0 l/m 0 min 0 min 12 W/m 3,2 km/h (1 Bft) 97,87 %
13.01.2021 09:18 1,5 C 1,1 C 0,6 C 97 % 1017,3 hPa 0,0 l/m 0 min 0 min 14 W/m 11,3 km/h (2 Bft) 97,87 %
13.01.2021 09:20 1,5 C 1,1 C 0,6 C 97 % 1017,4 hPa 0,0 l/m 0 min 0 min 13 W/m 9,7 km/h (2 Bft) 97,87 %
13.01.2021 09:22 1,5 C 1,1 C 0,6 C 97 % 1017,3 hPa 0,0 l/m 0 min 0 min 12 W/m 8,0 km/h (2 Bft) 100,00 %
13.01.2021 09:24 1,5 C 1,1 C 0,6 C 97 % 1017,3 hPa 0,0 l/m 0 min 0 min 14 W/m 8,0 km/h (2 Bft) 97,87 %
13.01.2021 09:26 1,5 C 1,1 C 0,6 C 97 % 1017,2 hPa 0,0 l/m 0 min 0 min 15 W/m 0,0 km/h (0 Bft) 100,00 %
13.01.2021 09:28 1,4 C 1,1 C 0,6 C 97 % 1017,3 hPa 0,0 l/m 0 min 0 min 16 W/m 8,0 km/h (2 Bft) 100,00 %
13.01.2021 09:30 1,4 C 1,1 C 0,6 C 97 % 1017,3 hPa 0,0 l/m 0 min 0 min 16 W/m 4,8 km/h (1 Bft) 100,00 %
13.01.2021 09:32 1,4 C 1,1 C 0,6 C 97 % 1017,3 hPa 0,0 l/m 0 min 0 min 18 W/m 1,6 km/h (1 Bft) 100,00 %
13.01.2021 09:34 1,4 C 1,1 C 0,6 C 97 % 1017,3 hPa 0,0 l/m 0 min 0 min 18 W/m 0,0 km/h (0 Bft) 97,87 %
13.01.2021 09:36 1,4 C 1,1 C 0,6 C 97 % 1017,4 hPa 0,0 l/m 0 min 0 min 23 W/m 9,7 km/h (2 Bft) 100,00 %
13.01.2021 09:38 1,4 C 1,1 C 0,6 C 97 % 1017,3 hPa 0,0 l/m 0 min 0 min 33 W/m 0,0 km/h (0 Bft) 100,00 %
13.01.2021 09:40 1,4 C 1,1 C 0,6 C 97 % 1017,3 hPa 0,0 l/m 0 min 0 min 39 W/m 1,6 km/h (1 Bft) 100,00 %
13.01.2021 09:42 1,4 C 1,1 C 0,6 C 97 % 1017,3 hPa 0,0 l/m 0 min 0 min 31 W/m 1,6 km/h (1 Bft) 100,00 %
13.01.2021 09:44 1,4 C 1,1 C 0,6 C 97 % 1017,3 hPa 0,0 l/m 0 min 0 min 33 W/m 0,0 km/h (0 Bft) 97,87 %
13.01.2021 09:46 1,4 C 1,1 C 0,6 C 97 % 1017,3 hPa 0,0 l/m 0 min 0 min 31 W/m 3,2 km/h (1 Bft) 95,74 %
13.01.2021 09:48 1,4 C 1,1 C 0,6 C 97 % 1017,3 hPa 0,0 l/m 0 min 0 min 34 W/m 0,0 km/h (0 Bft) 100,00 %
13.01.2021 09:50 1,4 C 1,1 C 0,6 C 97 % 1017,3 hPa 0,0 l/m 0 min 0 min 30 W/m 1,6 km/h (1 Bft) 100,00 %
13.01.2021 09:52 1,4 C 1,1 C 0,6 C 97 % 1017,4 hPa 0,0 l/m 0 min 0 min 29 W/m 0,0 km/h (0 Bft) 100,00 %
13.01.2021 09:54 1,4 C 1,1 C 0,6 C 97 % 1017,3 hPa 0,0 l/m 0 min 0 min 30 W/m 0,0 km/h (0 Bft) 97,87 %
13.01.2021 09:56 1,4 C 1,1 C 0,6 C 97 % 1017,2 hPa 0,0 l/m 0 min 0 min 42 W/m 0,0 km/h (0 Bft) 97,87 %
13.01.2021 09:58 1,4 C 1,1 C 0,6 C 97 % 1017,2 hPa 0,0 l/m 0 min 0 min 34 W/m 0,0 km/h (0 Bft) 97,87 %
13.01.2021 10:00 1,4 C 1,1 C 0,6 C 97 % 1017,3 hPa 0,0 l/m 0 min 0 min 36 W/m 8,0 km/h (2 Bft) 97,83 %
13.01.2021 10:02 1,4 C 1,1 C 0,6 C 97 % 1017,2 hPa 0,0 l/m 0 min 0 min 36 W/m 0,0 km/h (0 Bft) 97,87 %
13.01.2021 10:04 1,4 C 1,1 C 0,6 C 97 % 1017,3 hPa 0,0 l/m 0 min 0 min 30 W/m 1,6 km/h (1 Bft) 97,87 %
13.01.2021 10:06 1,4 C 1,1 C 0,6 C 97 % 1017,2 hPa 0,0 l/m 0 min 0 min 40 W/m 1,6 km/h (1 Bft) 95,83 %
13.01.2021 10:08 1,5 C 1,1 C 0,6 C 97 % 1017,2 hPa 0,0 l/m 0 min 0 min 39 W/m 1,6 km/h (1 Bft) 97,87 %
13.01.2021 10:10 1,5 C 1,7 C 0,6 C 97 % 1017,2 hPa 0,0 l/m 0 min 0 min 59 W/m 0,0 km/h (0 Bft) 100,00 %
13.01.2021 10:12 1,5 C 1,7 C 1,2 C 97 % 1017,2 hPa 0,0 l/m 0 min 0 min 59 W/m 0,0 km/h (0 Bft) 93,48 %
13.01.2021 10:14 1,5 C 1,7 C 1,2 C 97 % 1017,3 hPa 0,0 l/m 0 min 0 min 52 W/m 6,4 km/h (2 Bft) 97,87 %
13.01.2021 10:16 1,5 C 1,7 C 1,2 C 97 % 1017,2 hPa 0,0 l/m 0 min 0 min 45 W/m 12,9 km/h (3 Bft) 97,87 %
13.01.2021 10:18 1,6 C 1,7 C 1,2 C 97 % 1017,3 hPa 0,0 l/m 0 min 0 min 60 W/m 1,6 km/h (1 Bft) 97,30 %
13.01.2021 10:20 1,6 C 1,7 C 1,2 C 97 % 1017,3 hPa 0,0 l/m 0 min 0 min 41 W/m 0,0 km/h (0 Bft) 97,87 %
13.01.2021 10:22 1,6 C 1,7 C 1,2 C 97 % 1017,2 hPa 0,0 l/m 0 min 0 min 47 W/m 1,6 km/h (1 Bft) 97,83 %
13.01.2021 10:24 1,6 C 1,7 C 1,2 C 97 % 1017,2 hPa 0,0 l/m 0 min 0 min 71 W/m 0,0 km/h (0 Bft) 97,87 %
13.01.2021 10:26 1,6 C 1,7 C 1,2 C 98 % 1017,2 hPa 0,0 l/m 0 min 0 min 69 W/m 3,2 km/h (1 Bft) 97,87 %
13.01.2021 10:28 1,7 C 2,2 C 1,2 C 98 % 1017,2 hPa 0,0 l/m 0 min 0 min 57 W/m 1,6 km/h (1 Bft) 97,87 %
13.01.2021 10:30 1,8 C 1,7 C 1,2 C 98 % 1017,2 hPa 0,0 l/m 0 min 0 min 63 W/m 6,4 km/h (2 Bft) 95,74 %
13.01.2021 10:32 1,8 C 1,7 C 1,2 C 98 % 1017,2 hPa 0,0 l/m 0 min 0 min 72 W/m 0,0 km/h (0 Bft) 97,87 %
13.01.2021 10:34 1,8 C 2,2 C 1,2 C 98 % 1017,2 hPa 0,0 l/m 0 min 0 min 74 W/m 6,4 km/h (2 Bft) 97,83 %
13.01.2021 10:36 1,9 C 1,7 C 1,2 C 98 % 1017,3 hPa 0,0 l/m 0 min 0 min 64 W/m 8,0 km/h (2 Bft) 97,87 %
13.01.2021 10:38 1,9 C 1,7 C 1,2 C 98 % 1017,3 hPa 0,0 l/m 0 min 0 min 78 W/m 9,7 km/h (2 Bft) 95,74 %
13.01.2021 10:40 1,9 C 2,2 C 1,2 C 98 % 1017,3 hPa 0,0 l/m 0 min 0 min 74 W/m 6,4 km/h (2 Bft) 97,87 %
13.01.2021 10:42 1,9 C 2,2 C 1,2 C 98 % 1017,3 hPa 0,0 l/m 0 min 0 min 77 W/m 1,6 km/h (1 Bft) 100,00 %
13.01.2021 10:44 1,9 C 2,2 C 1,7 C 98 % 1017,3 hPa 0,0 l/m 0 min 0 min 72 W/m 3,2 km/h (1 Bft) 97,87 %
13.01.2021 10:46 2,0 C 2,2 C 1,7 C 98 % 1017,4 hPa 0,0 l/m 0 min 0 min 83 W/m 0,0 km/h (0 Bft) 100,00 %
13.01.2021 10:48 2,0 C 2,2 C 1,7 C 98 % 1017,4 hPa 0,0 l/m 0 min 0 min 101 W/m 0,0 km/h (0 Bft) 100,00 %
13.01.2021 10:50 2,0 C 2,2 C 1,7 C 98 % 1017,4 hPa 0,0 l/m 0 min 0 min 72 W/m 0,0 km/h (0 Bft) 100,00 %
13.01.2021 10:52 2,0 C 2,2 C 1,7 C 98 % 1017,4 hPa 0,0 l/m 0 min 0 min 73 W/m 0,0 km/h (0 Bft) 100,00 %
13.01.2021 10:54 2,0 C 2,2 C 1,7 C 98 % 1017,4 hPa 0,0 l/m 0 min 0 min 91 W/m 0,0 km/h (0 Bft) 100,00 %
13.01.2021 10:56 2,1 C 2,2 C 1,7 C 98 % 1017,3 hPa 0,0 l/m 0 min 0 min 83 W/m 6,4 km/h (2 Bft) 97,87 %
13.01.2021 10:58 2,1 C 2,2 C 1,7 C 98 % 1017,3 hPa 0,0 l/m 0 min 0 min 89 W/m 1,6 km/h (1 Bft) 100,00 %
13.01.2021 11:00 2,1 C 2,2 C 1,7 C 98 % 1017,2 hPa 0,0 l/m 0 min 0 min 83 W/m 0,0 km/h (0 Bft) 97,87 %
13.01.2021 11:02 2,1 C 2,2 C 1,7 C 98 % 1017,2 hPa 0,0 l/m 0 min 0 min 89 W/m 4,8 km/h (1 Bft) 100,00 %
13.01.2021 11:04 2,2 C 2,2 C 1,7 C 98 % 1017,2 hPa 0,0 l/m 0 min 0 min 80 W/m 3,2 km/h (1 Bft) 97,87 %
13.01.2021 11:06 2,2 C 2,2 C 1,7 C 98 % 1017,2 hPa 0,0 l/m 0 min 0 min 78 W/m 0,0 km/h (0 Bft) 100,00 %
13.01.2021 11:08 2,3 C 2,8 C 2,3 C 98 % 1017,2 hPa 0,0 l/m 0 min 0 min 113 W/m 0,0 km/h (0 Bft) 100,00 %
13.01.2021 11:10 2,3 C 2,8 C 2,3 C 98 % 1017,2 hPa 0,0 l/m 0 min 0 min 99 W/m 0,0 km/h (0 Bft) 100,00 %
13.01.2021 11:12 2,3 C 2,2 C 1,7 C 98 % 1017,3 hPa 0,0 l/m 0 min 0 min 72 W/m 1,6 km/h (1 Bft) 100,00 %
13.01.2021 11:14 2,3 C 2,2 C 1,7 C 98 % 1017,3 hPa 0,0 l/m 0 min 0 min 82 W/m 3,2 km/h (1 Bft) 100,00 %
13.01.2021 11:16 2,4 C 2,2 C 1,7 C 98 % 1017,3 hPa 0,0 l/m 0 min 0 min 70 W/m 0,0 km/h (0 Bft) 97,87 %
13.01.2021 11:18 2,4 C 2,2 C 1,7 C 98 % 1017,2 hPa 0,0 l/m 0 min 0 min 87 W/m 1,6 km/h (1 Bft) 100,00 %
13.01.2021 11:20 2,4 C 2,2 C 2,3 C 98 % 1017,2 hPa 0,0 l/m 0 min 0 min 66 W/m 0,0 km/h (0 Bft) 100,00 %
13.01.2021 11:22 2,4 C 2,2 C 2,3 C 98 % 1017,1 hPa 0,0 l/m 0 min 0 min 88 W/m 6,4 km/h (2 Bft) 100,00 %
13.01.2021 11:24 2,4 C 2,2 C 2,3 C 98 % 1017,1 hPa 0,0 l/m 0 min 0 min 57 W/m 9,7 km/h (2 Bft) 97,87 %
13.01.2021 11:26 2,4 C 2,2 C 2,3 C 98 % 1017,2 hPa 0,0 l/m 0 min 0 min 74 W/m 1,6 km/h (1 Bft) 97,87 %
13.01.2021 11:28 2,5 C 2,8 C 2,3 C 98 % 1017,1 hPa 0,0 l/m 0 min 0 min 89 W/m 1,6 km/h (1 Bft) 97,87 %
13.01.2021 11:30 2,5 C 2,8 C 2,3 C 98 % 1017,1 hPa 0,0 l/m 0 min 0 min 116 W/m 6,4 km/h (2 Bft) 97,87 %
13.01.2021 11:32 2,5 C 2,8 C 2,3 C 98 % 1017,1 hPa 0,0 l/m 0 min 0 min 77 W/m 0,0 km/h (0 Bft) 97,87 %
13.01.2021 11:34 2,5 C 2,8 C 2,3 C 98 % 1017,2 hPa 0,0 l/m 0 min 0 min 74 W/m 11,3 km/h (2 Bft) 97,83 %
13.01.2021 11:36 2,5 C 2,8 C 2,3 C 98 % 1017,2 hPa 0,0 l/m 0 min 0 min 75 W/m 0,0 km/h (0 Bft) 97,87 %
13.01.2021 11:38 2,5 C 2,8 C 2,3 C 98 % 1017,1 hPa 0,0 l/m 0 min 0 min 56 W/m 0,0 km/h (0 Bft) 97,87 %
13.01.2021 11:40 2,5 C 2,8 C 2,3 C 98 % 1017,1 hPa 0,0 l/m 0 min 0 min 69 W/m 0,0 km/h (0 Bft) 97,87 %
13.01.2021 11:42 2,6 C 2,8 C 2,3 C 98 % 1017,1 hPa 0,0 l/m 0 min 0 min 63 W/m 1,6 km/h (1 Bft) 95,74 %
13.01.2021 11:44 2,6 C 2,8 C 2,3 C 98 % 1017,1 hPa 0,0 l/m 0 min 0 min 83 W/m 0,0 km/h (0 Bft) 97,83 %
13.01.2021 11:46 2,6 C 2,8 C 2,3 C 98 % 1017,1 hPa 0,0 l/m 0 min 0 min 75 W/m 1,6 km/h (1 Bft) 97,87 %
13.01.2021 11:48 2,6 C 2,8 C 2,3 C 98 % 1017,0 hPa 0,0 l/m 0 min 0 min 86 W/m 9,7 km/h (2 Bft) 98,18 %
13.01.2021 11:50 2,6 C 2,8 C 2,3 C 98 % 1017,0 hPa 0,0 l/m 0 min 0 min 87 W/m 6,4 km/h (2 Bft) 97,87 %
13.01.2021 11:52 2,7 C 3,3 C 2,3 C 98 % 1017,0 hPa 0,0 l/m 0 min 0 min 99 W/m 0,0 km/h (0 Bft) 97,87 %
13.01.2021 11:54 2,8 C 3,3 C 2,8 C 98 % 1017,0 hPa 0,0 l/m 0 min 0 min 122 W/m 9,7 km/h (2 Bft) 97,87 %
13.01.2021 11:56 2,8 C 3,3 C 2,8 C 98 % 1017,0 hPa 0,0 l/m 0 min 0 min 115 W/m 1,6 km/h (1 Bft) 93,62 %
13.01.2021 11:58 2,9 C 3,3 C 2,8 C 98 % 1016,9 hPa 0,0 l/m 0 min 0 min 130 W/m 1,6 km/h (1 Bft) 97,83 %
13.01.2021 12:00 2,9 C 3,3 C 2,8 C 98 % 1016,9 hPa 0,0 l/m 0 min 0 min 111 W/m 3,2 km/h (1 Bft) 97,87 %
13.01.2021 12:02 3,0 C 3,3 C 2,8 C 98 % 1016,9 hPa 0,0 l/m 0 min 0 min 96 W/m 1,6 km/h (1 Bft) 97,87 %
13.01.2021 12:04 3,0 C 3,3 C 2,8 C 98 % 1016,9 hPa 0,0 l/m 0 min 0 min 90 W/m 0,0 km/h (0 Bft) 97,87 %
13.01.2021 12:08 3,0 C 3,3 C 2,8 C 98 % 1016,9 hPa 0,0 l/m 0 min 0 min 90 W/m 1,6 km/h (1 Bft) 96,81 %
13.01.2021 12:10 3,0 C 3,3 C 2,8 C 97 % 1016,9 hPa 0,0 l/m 0 min 0 min 105 W/m 0,0 km/h (0 Bft) 97,83 %
13.01.2021 12:12 3,1 C 3,3 C 2,8 C 97 % 1016,9 hPa 0,0 l/m 0 min 0 min 109 W/m 1,6 km/h (1 Bft) 97,87 %
13.01.2021 12:14 3,1 C 3,3 C 2,8 C 98 % 1016,9 hPa 0,0 l/m 0 min 0 min 146 W/m 0,0 km/h (0 Bft) 97,87 %
13.01.2021 12:16 3,1 C 3,3 C 2,8 C 98 % 1016,8 hPa 0,0 l/m 0 min 0 min 95 W/m 1,6 km/h (1 Bft) 100,00 %
13.01.2021 12:18 3,1 C 3,3 C 2,8 C 98 % 1016,8 hPa 0,0 l/m 0 min 0 min 43 W/m 1,6 km/h (1 Bft) 100,00 %
13.01.2021 12:20 3,2 C 3,3 C 2,8 C 97 % 1016,9 hPa 0,0 l/m 0 min 0 min 48 W/m 0,0 km/h (0 Bft) 100,00 %
13.01.2021 12:22 3,2 C 3,3 C 2,8 C 97 % 1016,8 hPa 0,0 l/m 0 min 0 min 112 W/m 0,0 km/h (0 Bft) 95,74 %
13.01.2021 12:24 3,3 C 3,3 C 3,4 C 97 % 1016,8 hPa 0,0 l/m 0 min 0 min 119 W/m 1,6 km/h (1 Bft) 97,83 %
13.01.2021 12:26 3,3 C 3,3 C 2,8 C 97 % 1016,8 hPa 0,0 l/m 0 min 0 min 61 W/m 0,0 km/h (0 Bft) 100,00 %
13.01.2021 12:28 3,3 C 3,3 C 2,8 C 97 % 1016,8 hPa 0,0 l/m 0 min 0 min 68 W/m 0,0 km/h (0 Bft) 97,87 %
13.01.2021 12:30 3,3 C 3,3 C 2,8 C 97 % 1016,8 hPa 0,0 l/m 0 min 0 min 73 W/m 1,6 km/h (1 Bft) 97,87 %
13.01.2021 12:32 3,3 C 3,3 C 2,8 C 97 % 1016,8 hPa 0,0 l/m 0 min 0 min 92 W/m 11,3 km/h (2 Bft) 97,87 %
13.01.2021 12:34 3,3 C 3,3 C 2,8 C 97 % 1016,7 hPa 0,0 l/m 0 min 0 min 99 W/m 11,3 km/h (2 Bft) 100,00 %
13.01.2021 12:36 3,3 C 3,3 C 3,4 C 97 % 1016,7 hPa 0,0 l/m 0 min 0 min 103 W/m 0,0 km/h (0 Bft) 100,00 %
13.01.2021 12:38 3,4 C 3,9 C 3,4 C 97 % 1016,7 hPa 0,0 l/m 0 min 0 min 137 W/m 1,6 km/h (1 Bft) 100,00 %
13.01.2021 12:40 3,4 C 4,4 C 3,9 C 97 % 1016,7 hPa 0,0 l/m 2 min 0 min 185 W/m 1,6 km/h (1 Bft) 97,87 %
13.01.2021 12:42 3,4 C 5,0 C 3,9 C 97 % 1016,7 hPa 0,0 l/m 0 min 0 min 134 W/m 0,0 km/h (0 Bft) 97,87 %
13.01.2021 12:44 3,5 C 4,4 C 3,9 C 97 % 1016,6 hPa 0,0 l/m 0 min 0 min 158 W/m 1,6 km/h (1 Bft) 97,87 %
13.01.2021 12:46 3,5 C 4,4 C 3,9 C 97 % 1016,6 hPa 0,0 l/m 0 min 0 min 111 W/m 0,0 km/h (0 Bft) 97,83 %
13.01.2021 12:48 3,6 C 5,0 C 4,5 C 97 % 1016,6 hPa 0,0 l/m 2 min 0 min 169 W/m 3,2 km/h (1 Bft) 97,87 %
13.01.2021 12:50 3,6 C 5,0 C 4,5 C 97 % 1016,6 hPa 0,0 l/m 2 min 0 min 178 W/m 1,6 km/h (1 Bft) 95,74 %
13.01.2021 12:52 3,7 C 4,4 C 3,9 C 97 % 1016,5 hPa 0,0 l/m 0 min 0 min 113 W/m 1,6 km/h (1 Bft) 97,87 %
13.01.2021 12:54 3,8 C 6,1 C 5,0 C 97 % 1016,5 hPa 0,0 l/m 0 min 0 min 107 W/m 1,6 km/h (1 Bft) 97,87 %
13.01.2021 12:56 3,8 C 6,1 C 5,0 C 97 % 1016,5 hPa 0,0 l/m 0 min 0 min 163 W/m 1,6 km/h (1 Bft) 97,87 %
13.01.2021 12:58 3,8 C 5,0 C 4,5 C 97 % 1016,4 hPa 0,0 l/m 0 min 0 min 104 W/m 0,0 km/h (0 Bft) 97,83 %
13.01.2021 13:00 3,9 C 5,0 C 3,9 C 97 % 1016,5 hPa 0,0 l/m 0 min 0 min 106 W/m 1,6 km/h (1 Bft) 95,74 %
13.01.2021 13:02 3,9 C 4,4 C 3,9 C 97 % 1016,4 hPa 0,0 l/m 0 min 0 min 89 W/m 3,2 km/h (1 Bft) 97,87 %
13.01.2021 13:04 3,9 C 4,4 C 3,4 C 97 % 1016,4 hPa 0,0 l/m 0 min 0 min 62 W/m 1,6 km/h (1 Bft) 95,74 %
13.01.2021 13:06 3,9 C 4,4 C 3,4 C 96 % 1016,3 hPa 0,0 l/m 0 min 0 min 87 W/m 0,0 km/h (0 Bft) 97,87 %
13.01.2021 13:08 3,9 C 4,4 C 3,9 C 96 % 1016,4 hPa 0,0 l/m 0 min 0 min 123 W/m 1,6 km/h (1 Bft) 97,87 %
13.01.2021 13:10 3,9 C 4,4 C 3,9 C 96 % 1016,3 hPa 0,0 l/m 0 min 0 min 109 W/m 1,6 km/h (1 Bft) 97,83 %
13.01.2021 13:12 3,9 C 4,4 C 3,9 C 96 % 1016,3 hPa 0,0 l/m 0 min 0 min 154 W/m 4,8 km/h (1 Bft) 97,87 %
13.01.2021 13:14 4,0 C 5,0 C 4,5 C 96 % 1016,3 hPa 0,0 l/m 0 min 0 min 137 W/m 0,0 km/h (0 Bft) 97,87 %
13.01.2021 13:16 4,0 C 5,0 C 4,5 C 96 % 1016,3 hPa 0,0 l/m 0 min 0 min 131 W/m 1,6 km/h (1 Bft) 95,74 %
13.01.2021 13:18 4,0 C 5,0 C 4,5 C 95 % 1016,2 hPa 0,0 l/m 0 min 0 min 143 W/m 1,6 km/h (1 Bft) 97,87 %
13.01.2021 13:20 4,1 C 5,6 C 5,0 C 95 % 1016,1 hPa 0,0 l/m 0 min 0 min 122 W/m 6,4 km/h (2 Bft) 97,87 %
13.01.2021 13:22 4,1 C 5,6 C 4,5 C 95 % 1016,1 hPa 0,0 l/m 0 min 0 min 121 W/m 0,0 km/h (0 Bft) 97,83 %
13.01.2021 13:24 4,1 C 5,6 C 4,5 C 95 % 1016,0 hPa 0,0 l/m 0 min 0 min 121 W/m 1,6 km/h (1 Bft) 97,87 %
13.01.2021 13:26 4,2 C 5,0 C 4,5 C 95 % 1016,0 hPa 0,0 l/m 0 min 0 min 123 W/m 8,0 km/h (2 Bft) 95,74 %
13.01.2021 13:28 4,2 C 4,4 C 3,9 C 94 % 1015,9 hPa 0,0 l/m 0 min 0 min 136 W/m 3,2 km/h (1 Bft) 97,87 %
13.01.2021 13:30 4,3 C 5,0 C 3,9 C 94 % 1015,9 hPa 0,0 l/m 0 min 0 min 135 W/m 0,0 km/h (0 Bft) 95,74 %
13.01.2021 13:32 4,3 C 4,4 C 3,9 C 94 % 1015,9 hPa 0,0 l/m 0 min 0 min 136 W/m 3,2 km/h (1 Bft) 97,87 %
13.01.2021 13:34 4,3 C 5,0 C 4,5 C 94 % 1015,9 hPa 0,0 l/m 0 min 0 min 133 W/m 11,3 km/h (2 Bft) 97,83 %
13.01.2021 13:36 4,3 C 5,0 C 4,5 C 93 % 1015,8 hPa 0,0 l/m 0 min 0 min 129 W/m 16,1 km/h (3 Bft) 95,74 %
13.01.2021 13:38 4,3 C 5,6 C 5,0 C 93 % 1015,9 hPa 0,0 l/m 0 min 0 min 129 W/m 3,2 km/h (1 Bft) 100,00 %
13.01.2021 13:40 4,4 C 5,0 C 4,5 C 93 % 1015,9 hPa 0,0 l/m 0 min 0 min 99 W/m 3,2 km/h (1 Bft) 100,00 %
13.01.2021 13:42 4,4 C 4,4 C 3,9 C 92 % 1015,8 hPa 0,0 l/m 0 min 0 min 81 W/m 0,0 km/h (0 Bft) 100,00 %
13.01.2021 13:44 4,4 C 4,4 C 3,9 C 92 % 1015,8 hPa 0,0 l/m 0 min 0 min 89 W/m 0,0 km/h (0 Bft) 97,87 %
13.01.2021 13:46 4,4 C 5,0 C 3,9 C 92 % 1015,9 hPa 0,0 l/m 0 min 0 min 114 W/m 1,6 km/h (1 Bft) 97,83 %
13.01.2021 13:48 4,4 C 5,0 C 3,9 C 92 % 1015,8 hPa 0,0 l/m 0 min 0 min 126 W/m 1,6 km/h (1 Bft) 97,87 %
13.01.2021 13:50 4,5 C 5,0 C 3,9 C 92 % 1015,7 hPa 0,0 l/m 2 min 0 min 158 W/m 0,0 km/h (0 Bft) 63,83 %
13.01.2021 13:52 4,5 C 5,0 C 3,9 C 92 % 1015,7 hPa 0,0 l/m 0 min 0 min 136 W/m 1,6 km/h (1 Bft) 93,02 %
13.01.2021 13:54 4,5 C 4,4 C 3,9 C 91 % 1015,7 hPa 0,0 l/m 0 min 0 min 113 W/m 3,2 km/h (1 Bft) 100,00 %
13.01.2021 13:56 4,5 C 4,4 C 3,9 C 91 % 1015,7 hPa 0,0 l/m 0 min 0 min 103 W/m 1,6 km/h (1 Bft) 97,87 %
13.01.2021 13:58 4,5 C 4,4 C 3,9 C 91 % 1015,7 hPa 0,0 l/m 0 min 0 min 95 W/m 0,0 km/h (0 Bft) 97,96 %
13.01.2021 14:00 4,5 C 5,0 C 3,9 C 91 % 1015,6 hPa 0,0 l/m 2 min 0 min 163 W/m 1,6 km/h (1 Bft) 100,00 %
13.01.2021 14:02 4,5 C 5,0 C 4,5 C 91 % 1015,6 hPa 0,0 l/m 0 min 0 min 141 W/m 1,6 km/h (1 Bft) 100,00 %
13.01.2021 14:04 4,5 C 5,6 C 4,5 C 90 % 1015,6 hPa 0,0 l/m 0 min 0 min 140 W/m 3,2 km/h (1 Bft) 97,22 %
13.01.2021 14:06 4,5 C 5,6 C 4,5 C 90 % 1015,6 hPa 0,0 l/m 0 min 0 min 122 W/m 1,6 km/h (1 Bft) 97,83 %
13.01.2021 14:08 4,5 C 5,6 C 3,9 C 90 % 1015,6 hPa 0,0 l/m 0 min 0 min 110 W/m 11,3 km/h (2 Bft) 97,87 %
13.01.2021 14:10 4,5 C 5,6 C 3,9 C 90 % 1015,5 hPa 0,0 l/m 0 min 0 min 96 W/m 11,3 km/h (2 Bft) 97,87 %
13.01.2021 14:12 4,5 C 6,1 C 5,0 C 90 % 1015,5 hPa 0,0 l/m 2 min 0 min 268 W/m 1,6 km/h (1 Bft) 97,87 %
13.01.2021 14:14 4,6 C 6,7 C 5,0 C 90 % 1015,5 hPa 0,0 l/m 2 min 0 min 315 W/m 1,6 km/h (1 Bft) 97,87 %
13.01.2021 14:16 4,6 C 6,7 C 5,6 C 90 % 1015,5 hPa 0,0 l/m 2 min 0 min 223 W/m 1,6 km/h (1 Bft) 93,62 %
13.01.2021 14:18 4,7 C 7,8 C 6,2 C 90 % 1015,5 hPa 0,0 l/m 2 min 0 min 252 W/m 0,0 km/h (0 Bft) 97,83 %
13.01.2021 14:20 4,8 C 7,8 C 6,7 C 90 % 1015,5 hPa 0,0 l/m 2 min 0 min 251 W/m 6,4 km/h (2 Bft) 97,87 %
13.01.2021 14:22 4,8 C 7,8 C 6,7 C 90 % 1015,4 hPa 0,0 l/m 2 min 0 min 257 W/m 0,0 km/h (0 Bft) 97,87 %
13.01.2021 14:24 4,9 C 7,2 C 6,7 C 89 % 1015,4 hPa 0,0 l/m 2 min 0 min 176 W/m 0,0 km/h (0 Bft) 97,87 %
13.01.2021 14:26 4,9 C 5,6 C 5,6 C 89 % 1015,4 hPa 0,0 l/m 0 min 0 min 77 W/m 3,2 km/h (1 Bft) 97,87 %
13.01.2021 14:28 4,9 C 5,0 C 5,0 C 88 % 1015,3 hPa 0,0 l/m 0 min 0 min 87 W/m 1,6 km/h (1 Bft) 97,87 %
13.01.2021 14:30 4,9 C 5,6 C 5,0 C 88 % 1015,4 hPa 0,0 l/m 0 min 0 min 97 W/m 1,6 km/h (1 Bft) 97,87 %
13.01.2021 14:32 4,9 C 5,0 C 5,0 C 88 % 1015,4 hPa 0,0 l/m 0 min 0 min 87 W/m 0,0 km/h (0 Bft) 97,83 %
13.01.2021 14:34 4,9 C 5,0 C 4,5 C 88 % 1015,3 hPa 0,0 l/m 0 min 0 min 60 W/m 1,6 km/h (1 Bft) 95,74 %
13.01.2021 14:36 4,9 C 5,0 C 4,5 C 88 % 1015,3 hPa 0,0 l/m 0 min 0 min 52 W/m 3,2 km/h (1 Bft) 95,74 %
13.01.2021 14:38 4,9 C 4,4 C 3,9 C 88 % 1015,3 hPa 0,0 l/m 0 min 0 min 33 W/m 1,6 km/h (1 Bft) 97,87 %
13.01.2021 14:40 4,9 C 4,4 C 3,9 C 88 % 1015,3 hPa 0,0 l/m 0 min 0 min 26 W/m 1,6 km/h (1 Bft) 97,87 %
13.01.2021 14:42 4,8 C 4,4 C 3,9 C 88 % 1015,3 hPa 0,0 l/m 0 min 0 min 26 W/m 3,2 km/h (1 Bft) 94,44 %
13.01.2021 14:44 4,8 C 3,9 C 3,4 C 87 % 1015,3 hPa 0,0 l/m 0 min 0 min 27 W/m 1,6 km/h (1 Bft) 97,87 %
13.01.2021 14:46 4,8 C 3,9 C 3,4 C 87 % 1015,3 hPa 0,0 l/m 0 min 0 min 31 W/m 3,2 km/h (1 Bft) 100,00 %
13.01.2021 14:48 4,7 C 3,9 C 3,4 C 87 % 1015,2 hPa 0,0 l/m 0 min 0 min 29 W/m 3,2 km/h (1 Bft) 100,00 %
13.01.2021 14:50 4,6 C 3,9 C 3,4 C 87 % 1015,3 hPa 0,0 l/m 0 min 0 min 32 W/m 1,6 km/h (1 Bft) 100,00 %
13.01.2021 14:54 4,6 C 3,9 C 3,4 C 87 % 1015,3 hPa 0,0 l/m 0 min 0 min 38 W/m 3,2 km/h (1 Bft) 96,74 %
13.01.2021 14:56 4,5 C 3,9 C 3,4 C 87 % 1015,3 hPa 0,0 l/m 0 min 0 min 39 W/m 3,2 km/h (1 Bft) 96,30 %
13.01.2021 14:58 4,5 C 3,9 C 3,4 C 87 % 1015,3 hPa 0,0 l/m 0 min 0 min 38 W/m 0,0 km/h (0 Bft) 92,68 %
13.01.2021 15:00 4,5 C 3,9 C 2,8 C 87 % 1015,2 hPa 0,0 l/m 0 min 0 min 34 W/m 1,6 km/h (1 Bft) 97,87 %
13.01.2021 15:02 4,5 C 3,9 C 2,8 C 87 % 1015,2 hPa 0,0 l/m 0 min 0 min 36 W/m 1,6 km/h (1 Bft) 97,92 %
13.01.2021 15:04 4,4 C 3,9 C 2,8 C 87 % 1015,2 hPa 0,0 l/m 0 min 0 min 43 W/m 1,6 km/h (1 Bft) 97,87 %
13.01.2021 15:08 4,4 C 3,9 C 2,8 C 88 % 1015,1 hPa 0,0 l/m 0 min 0 min 49 W/m 1,6 km/h (1 Bft) 97,92 %
13.01.2021 15:10 4,4 C 3,9 C 2,8 C 88 % 1015,1 hPa 0,0 l/m 0 min 0 min 46 W/m 0,0 km/h (0 Bft) 97,56 %
13.01.2021 15:12 4,4 C 3,9 C 2,8 C 88 % 1015,0 hPa 0,0 l/m 0 min 0 min 53 W/m 1,6 km/h (1 Bft) 97,87 %
13.01.2021 15:14 4,3 C 3,9 C 2,8 C 88 % 1015,0 hPa 0,0 l/m 0 min 0 min 48 W/m 4,8 km/h (1 Bft) 97,87 %
13.01.2021 15:16 4,3 C 3,9 C 2,8 C 87 % 1015,0 hPa 0,0 l/m 0 min 0 min 35 W/m 6,4 km/h (2 Bft) 97,87 %
13.01.2021 15:18 4,3 C 3,9 C 2,8 C 87 % 1014,9 hPa 0,0 l/m 0 min 0 min 32 W/m 1,6 km/h (1 Bft) 97,87 %
13.01.2021 15:20 4,3 C 3,9 C 2,8 C 87 % 1014,9 hPa 0,0 l/m 0 min 0 min 39 W/m 1,6 km/h (1 Bft) 97,83 %
13.01.2021 15:22 4,3 C 3,9 C 2,8 C 87 % 1014,9 hPa 0,0 l/m 0 min 0 min 29 W/m 1,6 km/h (1 Bft) 97,87 %
13.01.2021 15:24 4,3 C 3,9 C 2,8 C 87 % 1014,9 hPa 0,0 l/m 0 min 0 min 26 W/m 1,6 km/h (1 Bft) 97,87 %
13.01.2021 15:26 4,3 C 3,9 C 2,8 C 87 % 1014,9 hPa 0,0 l/m 0 min 0 min 38 W/m 1,6 km/h (1 Bft) 97,87 %
13.01.2021 15:28 4,3 C 3,9 C 2,8 C 87 % 1014,9 hPa 0,0 l/m 0 min 0 min 46 W/m 3,2 km/h (1 Bft) 97,87 %
13.01.2021 15:30 4,3 C 3,9 C 2,8 C 87 % 1014,9 hPa 0,0 l/m 0 min 0 min 51 W/m 11,3 km/h (2 Bft) 97,87 %
13.01.2021 15:32 4,3 C 3,9 C 2,8 C 87 % 1014,9 hPa 0,0 l/m 0 min 0 min 47 W/m 9,7 km/h (2 Bft) 97,83 %
13.01.2021 15:34 4,3 C 3,9 C 2,8 C 87 % 1014,9 hPa 0,0 l/m 0 min 0 min 44 W/m 0,0 km/h (0 Bft) 97,87 %
13.01.2021 15:36 4,3 C 3,9 C 2,8 C 87 % 1014,9 hPa 0,0 l/m 0 min 0 min 41 W/m 1,6 km/h (1 Bft) 95,74 %
13.01.2021 15:38 4,3 C 3,9 C 2,8 C 87 % 1014,9 hPa 0,0 l/m 0 min 0 min 38 W/m 1,6 km/h (1 Bft) 97,87 %
13.01.2021 15:40 4,3 C 3,9 C 2,8 C 87 % 1015,0 hPa 0,0 l/m 0 min 0 min 34 W/m 1,6 km/h (1 Bft) 97,87 %
13.01.2021 15:42 4,3 C 3,9 C 2,8 C 87 % 1014,9 hPa 0,0 l/m 0 min 0 min 33 W/m 1,6 km/h (1 Bft) 97,87 %
13.01.2021 15:44 4,2 C 3,9 C 2,8 C 87 % 1015,0 hPa 0,0 l/m 0 min 0 min 33 W/m 1,6 km/h (1 Bft) 97,83 %
13.01.2021 15:46 4,2 C 3,9 C 2,8 C 87 % 1015,0 hPa 0,0 l/m 0 min 0 min 32 W/m 1,6 km/h (1 Bft) 95,74 %
13.01.2021 15:48 4,2 C 3,9 C 2,8 C 87 % 1015,0 hPa 0,0 l/m 0 min 0 min 31 W/m 0,0 km/h (0 Bft) 93,62 %
13.01.2021 15:50 4,2 C 3,9 C 2,8 C 87 % 1014,9 hPa 0,0 l/m 0 min 0 min 29 W/m 1,6 km/h (1 Bft) 97,87 %
13.01.2021 15:52 4,1 C 3,9 C 2,8 C 87 % 1014,9 hPa 0,0 l/m 0 min 0 min 28 W/m 1,6 km/h (1 Bft) 95,74 %
13.01.2021 15:54 4,1 C 3,9 C 2,8 C 87 % 1015,0 hPa 0,0 l/m 0 min 0 min 31 W/m 1,6 km/h (1 Bft) 95,74 %
13.01.2021 15:56 4,1 C 3,9 C 2,3 C 87 % 1014,9 hPa 0,0 l/m 0 min 0 min 34 W/m 1,6 km/h (1 Bft) 93,48 %
13.01.2021 15:58 4,1 C 3,9 C 2,3 C 87 % 1014,9 hPa 0,0 l/m 0 min 0 min 36 W/m 1,6 km/h (1 Bft) 95,74 %
13.01.2021 16:00 4,1 C 3,9 C 2,3 C 87 % 1014,8 hPa 0,0 l/m 0 min 0 min 35 W/m 0,0 km/h (0 Bft) 95,83 %
13.01.2021 16:02 4,1 C 3,9 C 2,3 C 87 % 1014,9 hPa 0,0 l/m 0 min 0 min 34 W/m 1,6 km/h (1 Bft) 95,74 %
13.01.2021 16:04 4,1 C 3,9 C 2,3 C 87 % 1014,8 hPa 0,0 l/m 0 min 0 min 33 W/m 3,2 km/h (1 Bft) 95,74 %
13.01.2021 16:06 4,1 C 3,9 C 2,3 C 87 % 1014,8 hPa 0,0 l/m 0 min 0 min 31 W/m 1,6 km/h (1 Bft) 95,65 %
13.01.2021 16:08 4,1 C 3,3 C 2,3 C 87 % 1014,8 hPa 0,0 l/m 0 min 0 min 28 W/m 1,6 km/h (1 Bft) 95,74 %
13.01.2021 16:10 4,1 C 3,3 C 2,3 C 87 % 1014,8 hPa 0,0 l/m 0 min 0 min 26 W/m 1,6 km/h (1 Bft) 95,74 %
13.01.2021 16:12 4,0 C 3,3 C 2,3 C 87 % 1014,8 hPa 0,0 l/m 0 min 0 min 24 W/m 1,6 km/h (1 Bft) 95,74 %
13.01.2021 16:14 4,0 C 3,3 C 2,3 C 87 % 1014,8 hPa 0,0 l/m 0 min 0 min 21 W/m 1,6 km/h (1 Bft) 95,74 %
13.01.2021 16:16 4,0 C 3,3 C 2,3 C 87 % 1014,8 hPa 0,0 l/m 0 min 0 min 21 W/m 1,6 km/h (1 Bft) 93,62 %
13.01.2021 16:18 4,0 C 3,3 C 2,3 C 87 % 1014,8 hPa 0,0 l/m 0 min 0 min 21 W/m 1,6 km/h (1 Bft) 95,65 %
13.01.2021 16:20 4,0 C 3,3 C 2,3 C 87 % 1014,8 hPa 0,0 l/m 0 min 0 min 19 W/m 0,0 km/h (0 Bft) 91,49 %
13.01.2021 16:22 4,0 C 3,3 C 2,3 C 87 % 1014,8 hPa 0,0 l/m 0 min 0 min 17 W/m 1,6 km/h (1 Bft) 95,74 %
13.01.2021 16:24 4,0 C 3,3 C 2,3 C 87 % 1014,7 hPa 0,0 l/m 0 min 0 min 13 W/m 1,6 km/h (1 Bft) 95,74 %
13.01.2021 16:26 4,0 C 3,3 C 2,3 C 87 % 1014,7 hPa 0,0 l/m 0 min 0 min 12 W/m 0,0 km/h (0 Bft) 95,74 %
13.01.2021 16:28 4,0 C 3,3 C 2,3 C 87 % 1014,6 hPa 0,0 l/m 0 min 0 min 12 W/m 3,2 km/h (1 Bft) 95,74 %
13.01.2021 16:30 4,0 C 3,3 C 2,3 C 87 % 1014,6 hPa 0,0 l/m 0 min 0 min 12 W/m 1,6 km/h (1 Bft) 95,65 %
13.01.2021 16:32 4,0 C 3,3 C 2,3 C 88 % 1014,6 hPa 0,0 l/m 0 min 0 min 10 W/m 1,6 km/h (1 Bft) 95,74 %
13.01.2021 16:34 3,9 C 3,3 C 2,3 C 88 % 1014,6 hPa 0,0 l/m 0 min 0 min 8 W/m 0,0 km/h (0 Bft) 95,74 %
13.01.2021 16:36 3,9 C 3,3 C 2,3 C 88 % 1014,7 hPa 0,0 l/m 0 min 0 min 7 W/m 1,6 km/h (1 Bft) 97,87 %
13.01.2021 16:38 3,9 C 3,3 C 2,3 C 88 % 1014,6 hPa 0,0 l/m 0 min 0 min 5 W/m 0,0 km/h (0 Bft) 95,74 %
13.01.2021 16:40 3,9 C 3,3 C 2,3 C 88 % 1014,6 hPa 0,0 l/m 0 min 0 min 5 W/m 1,6 km/h (1 Bft) 100,00 %
13.01.2021 16:42 3,9 C 3,3 C 2,3 C 88 % 1014,6 hPa 0,0 l/m 0 min 0 min 5 W/m 0,0 km/h (0 Bft) 100,00 %
13.01.2021 16:44 3,9 C 3,3 C 2,3 C 88 % 1014,7 hPa 0,0 l/m 0 min 0 min 1 W/m 1,6 km/h (1 Bft) 97,87 %
13.01.2021 16:46 3,9 C 3,3 C 2,3 C 88 % 1014,7 hPa 0,0 l/m 0 min 0 min 0 W/m 1,6 km/h (1 Bft) 100,00 %
13.01.2021 16:48 3,9 C 3,3 C 2,3 C 88 % 1014,7 hPa 0,0 l/m 0 min 0 min 0 W/m 9,7 km/h (2 Bft) 97,87 %
13.01.2021 16:50 3,9 C 3,3 C 2,3 C 88 % 1014,6 hPa 0,0 l/m 0 min 0 min 0 W/m 0,0 km/h (0 Bft) 97,87 %
13.01.2021 16:52 3,9 C 3,3 C 1,7 C 87 % 1014,7 hPa 0,0 l/m 0 min 0 min 0 W/m 0,0 km/h (0 Bft) 95,74 %
13.01.2021 16:54 3,9 C 3,3 C 1,7 C 87 % 1014,8 hPa 0,0 l/m 0 min 0 min 0 W/m 0,0 km/h (0 Bft) 97,83 %
13.01.2021 16:56 3,9 C 3,3 C 1,7 C 87 % 1014,7 hPa 0,0 l/m 0 min 0 min 0 W/m 0,0 km/h (0 Bft) 97,87 %
13.01.2021 16:58 3,9 C 3,3 C 1,7 C 88 % 1014,7 hPa 0,0 l/m 0 min 0 min 0 W/m 0,0 km/h (0 Bft) 93,62 %
13.01.2021 17:00 3,9 C 3,3 C 1,7 C 88 % 1014,6 hPa 0,0 l/m 0 min 0 min 0 W/m 0,0 km/h (0 Bft) 97,87 %
13.01.2021 17:02 3,9 C 3,3 C 1,7 C 88 % 1014,7 hPa 0,0 l/m 0 min 0 min 0 W/m 0,0 km/h (0 Bft) 97,87 %
13.01.2021 17:04 3,8 C 3,3 C 1,7 C 88 % 1014,6 hPa 0,0 l/m 0 min 0 min 0 W/m 0,0 km/h (0 Bft) 97,87 %
13.01.2021 17:06 3,8 C 3,3 C 1,7 C 88 % 1014,5 hPa 0,0 l/m 0 min 0 min 0 W/m 0,0 km/h (0 Bft) 97,83 %
13.01.2021 17:08 3,8 C 3,3 C 1,7 C 88 % 1014,6 hPa 0,0 l/m 0 min 0 min 0 W/m 1,6 km/h (1 Bft) 93,62 %
13.01.2021 17:10 3,8 C 3,3 C 1,7 C 88 % 1014,6 hPa 0,0 l/m 0 min 0 min 0 W/m 1,6 km/h (1 Bft) 95,74 %
13.01.2021 17:12 3,8 C 3,3 C 1,7 C 88 % 1014,7 hPa 0,0 l/m 0 min 0 min 0 W/m 1,6 km/h (1 Bft) 91,49 %
13.01.2021 17:14 3,8 C 3,3 C 1,7 C 88 % 1014,6 hPa 0,0 l/m 0 min 0 min 0 W/m 0,0 km/h (0 Bft) 36,67 %
13.01.2021 17:16 3,8 C 3,3 C 1,7 C 88 % 1014,6 hPa 0,0 l/m 0 min 0 min 0 W/m 0,0 km/h (0 Bft) 97,87 %
13.01.2021 17:18 3,8 C 3,3 C 1,7 C 88 % 1014,6 hPa 0,0 l/m 0 min 0 min 0 W/m 0,0 km/h (0 Bft) 97,83 %
13.01.2021 17:20 3,8 C 3,3 C 1,7 C 88 % 1014,5 hPa 0,0 l/m 0 min 0 min 0 W/m 1,6 km/h (1 Bft) 97,87 %
13.01.2021 17:22 3,8 C 3,3 C 1,7 C 88 % 1014,4 hPa 0,0 l/m 0 min 0 min 0 W/m 0,0 km/h (0 Bft) 95,74 %
13.01.2021 17:24 3,8 C 3,3 C 1,7 C 88 % 1014,4 hPa 0,0 l/m 0 min 0 min 0 W/m 0,0 km/h (0 Bft) 97,87 %
13.01.2021 17:26 3,7 C 2,8 C 1,7 C 88 % 1014,4 hPa 0,0 l/m 0 min 0 min 0 W/m 0,0 km/h (0 Bft) 95,74 %
13.01.2021 17:28 3,7 C 2,8 C 1,7 C 88 % 1014,3 hPa 0,0 l/m 0 min 0 min 0 W/m 0,0 km/h (0 Bft) 97,87 %
13.01.2021 17:30 3,7 C 2,8 C 1,7 C 88 % 1014,3 hPa 0,0 l/m 0 min 0 min 0 W/m 1,6 km/h (1 Bft) 97,83 %
13.01.2021 17:32 3,7 C 2,8 C 1,7 C 88 % 1014,3 hPa 0,0 l/m 0 min 0 min 0 W/m 6,4 km/h (2 Bft) 97,92 %
13.01.2021 17:34 3,6 C 2,8 C 1,7 C 88 % 1014,4 hPa 0,0 l/m 0 min 0 min 0 W/m 0,0 km/h (0 Bft) 97,87 %
13.01.2021 17:36 3,6 C 2,8 C 1,7 C 88 % 1014,3 hPa 0,0 l/m 0 min 0 min 0 W/m 0,0 km/h (0 Bft) 100,00 %
13.01.2021 17:38 3,6 C 2,8 C 1,7 C 89 % 1014,3 hPa 0,0 l/m 0 min 0 min 0 W/m 1,6 km/h (1 Bft) 100,00 %
13.01.2021 17:40 3,6 C 2,8 C 1,7 C 89 % 1014,3 hPa 0,0 l/m 0 min 0 min 0 W/m 0,0 km/h (0 Bft) 97,87 %
13.01.2021 17:42 3,6 C 2,8 C 1,7 C 89 % 1014,2 hPa 0,0 l/m 0 min 0 min 0 W/m 1,6 km/h (1 Bft) 100,00 %
13.01.2021 17:44 3,6 C 2,8 C 1,7 C 89 % 1014,1 hPa 0,0 l/m 0 min 0 min 0 W/m 0,0 km/h (0 Bft) 100,00 %
13.01.2021 17:46 3,6 C 2,8 C 1,7 C 89 % 1014,2 hPa 0,0 l/m 0 min 0 min 0 W/m 0,0 km/h (0 Bft) 95,74 %
13.01.2021 17:48 3,5 C 2,8 C 1,7 C 89 % 1014,2 hPa 0,0 l/m 0 min 0 min 0 W/m 0,0 km/h (0 Bft) 100,00 %
13.01.2021 17:50 3,5 C 2,8 C 1,7 C 89 % 1014,2 hPa 0,0 l/m 0 min 0 min 0 W/m 0,0 km/h (0 Bft) 97,87 %
13.01.2021 17:52 3,5 C 2,8 C 1,7 C 89 % 1014,1 hPa 0,0 l/m 0 min 0 min 0 W/m 1,6 km/h (1 Bft) 100,00 %
13.01.2021 17:54 3,5 C 2,8 C 1,7 C 89 % 1014,2 hPa 0,0 l/m 0 min 0 min 0 W/m 0,0 km/h (0 Bft) 100,00 %
13.01.2021 17:56 3,5 C 2,8 C 1,7 C 89 % 1014,2 hPa 0,0 l/m 0 min 0 min 0 W/m 0,0 km/h (0 Bft) 97,87 %
13.01.2021 17:58 3,5 C 2,8 C 1,7 C 90 % 1014,2 hPa 0,0 l/m 0 min 0 min 0 W/m 1,6 km/h (1 Bft) 97,87 %
13.01.2021 18:00 3,5 C 2,8 C 1,7 C 90 % 1014,2 hPa 0,0 l/m 0 min 0 min 0 W/m 1,6 km/h (1 Bft) 100,00 %
13.01.2021 18:02 3,5 C 2,8 C 1,7 C 90 % 1014,2 hPa 0,0 l/m 0 min 0 min 0 W/m 1,6 km/h (1 Bft) 97,87 %
13.01.2021 18:04 3,5 C 2,8 C 1,7 C 90 % 1014,2 hPa 0,0 l/m 0 min 0 min 0 W/m 1,6 km/h (1 Bft) 100,00 %
13.01.2021 18:06 3,5 C 2,8 C 1,7 C 90 % 1014,2 hPa 0,0 l/m 0 min 0 min 0 W/m 0,0 km/h (0 Bft) 100,00 %
13.01.2021 18:08 3,5 C 2,8 C 1,7 C 90 % 1014,2 hPa 0,0 l/m 0 min 0 min 0 W/m 0,0 km/h (0 Bft) 100,00 %
13.01.2021 18:10 3,5 C 2,8 C 1,7 C 90 % 1014,2 hPa 0,0 l/m 0 min 0 min 0 W/m 0,0 km/h (0 Bft) 100,00 %
13.01.2021 18:12 3,5 C 2,8 C 1,7 C 90 % 1014,2 hPa 0,0 l/m 0 min 0 min 0 W/m 1,6 km/h (1 Bft) 100,00 %
13.01.2021 18:14 3,5 C 2,8 C 1,7 C 90 % 1014,1 hPa 0,0 l/m 0 min 0 min 0 W/m 1,6 km/h (1 Bft) 100,00 %
13.01.2021 18:16 3,5 C 2,8 C 1,7 C 90 % 1014,1 hPa 0,0 l/m 0 min 0 min 0 W/m 1,6 km/h (1 Bft) 100,00 %
13.01.2021 18:18 3,5 C 2,8 C 1,7 C 90 % 1014,2 hPa 0,0 l/m 0 min 0 min 0 W/m 1,6 km/h (1 Bft) 100,00 %
13.01.2021 18:20 3,5 C 2,8 C 1,7 C 90 % 1014,2 hPa 0,0 l/m 0 min 0 min 0 W/m 0,0 km/h (0 Bft) 100,00 %
13.01.2021 18:22 3,5 C 2,8 C 1,7 C 90 % 1014,2 hPa 0,0 l/m 0 min 0 min 0 W/m 0,0 km/h (0 Bft) 93,62 %
13.01.2021 18:24 3,5 C 2,8 C 1,7 C 90 % 1014,2 hPa 0,0 l/m 0 min 0 min 0 W/m 1,6 km/h (1 Bft) 100,00 %
13.01.2021 18:26 3,5 C 2,8 C 1,7 C 90 % 1014,2 hPa 0,0 l/m 0 min 0 min 0 W/m 0,0 km/h (0 Bft) 100,00 %
13.01.2021 18:28 3,5 C 2,8 C 1,7 C 90 % 1014,2 hPa 0,0 l/m 0 min 0 min 0 W/m 0,0 km/h (0 Bft) 100,00 %
13.01.2021 18:30 3,4 C 2,8 C 1,7 C 90 % 1014,3 hPa 0,0 l/m 0 min 0 min 0 W/m 0,0 km/h (0 Bft) 100,00 %
13.01.2021 18:32 3,5 C 2,8 C 1,7 C 90 % 1014,2 hPa 0,0 l/m 0 min 0 min 0 W/m 1,6 km/h (1 Bft) 95,83 %
13.01.2021 18:34 3,4 C 2,8 C 1,7 C 90 % 1014,2 hPa 0,0 l/m 0 min 0 min 0 W/m 1,6 km/h (1 Bft) 100,00 %
13.01.2021 18:36 3,5 C 2,8 C 1,7 C 90 % 1014,1 hPa 0,0 l/m 0 min 0 min 0 W/m 0,0 km/h (0 Bft) 95,74 %
13.01.2021 18:38 3,5 C 2,8 C 1,7 C 90 % 1014,2 hPa 0,0 l/m 0 min 0 min 0 W/m 1,6 km/h (1 Bft) 97,87 %
13.01.2021 18:40 3,5 C 2,8 C 1,7 C 90 % 1014,1 hPa 0,0 l/m 0 min 0 min 0 W/m 1,6 km/h (1 Bft) 97,83 %
13.01.2021 18:42 3,5 C 2,8 C 1,7 C 90 % 1014,1 hPa 0,0 l/m 0 min 0 min 0 W/m 1,6 km/h (1 Bft) 97,87 %
13.01.2021 18:44 3,5 C 2,8 C 1,7 C 90 % 1014,2 hPa 0,0 l/m 0 min 0 min 0 W/m 0,0 km/h (0 Bft) 97,87 %
13.01.2021 18:46 3,5 C 2,8 C 1,7 C 90 % 1014,1 hPa 0,0 l/m 0 min 0 min 0 W/m 0,0 km/h (0 Bft) 97,87 %
13.01.2021 18:48 3,5 C 2,8 C 1,7 C 90 % 1014,1 hPa 0,0 l/m 0 min 0 min 0 W/m 1,6 km/h (1 Bft) 97,87 %
13.01.2021 18:50 3,5 C 3,3 C 1,7 C 90 % 1014,2 hPa 0,0 l/m 0 min 0 min 0 W/m 0,0 km/h (0 Bft) 97,87 %
13.01.2021 18:52 3,5 C 3,3 C 1,7 C 90 % 1014,2 hPa 0,0 l/m 0 min 0 min 0 W/m 1,6 km/h (1 Bft) 97,83 %
13.01.2021 18:54 3,5 C 3,3 C 1,7 C 90 % 1014,2 hPa 0,0 l/m 0 min 0 min 0 W/m 0,0 km/h (0 Bft) 97,87 %
13.01.2021 18:56 3,5 C 3,3 C 1,7 C 90 % 1014,2 hPa 0,0 l/m 0 min 0 min 0 W/m 1,6 km/h (1 Bft) 95,74 %
13.01.2021 18:58 3,5 C 3,3 C 1,7 C 90 % 1014,2 hPa 0,0 l/m 0 min 0 min 0 W/m 1,6 km/h (1 Bft) 97,87 %
13.01.2021 19:00 3,5 C 3,3 C 1,7 C 90 % 1014,3 hPa 0,0 l/m 0 min 0 min 0 W/m 0,0 km/h (0 Bft) 97,87 %
13.01.2021 19:02 3,5 C 3,3 C 1,7 C 90 % 1014,2 hPa 0,0 l/m 0 min 0 min 0 W/m 1,6 km/h (1 Bft) 95,65 %
13.01.2021 19:04 3,5 C 3,3 C 1,7 C 90 % 1014,2 hPa 0,0 l/m 0 min 0 min 0 W/m 1,6 km/h (1 Bft) 97,87 %
13.01.2021 19:06 3,5 C 3,3 C 1,7 C 90 % 1014,2 hPa 0,0 l/m 0 min 0 min 0 W/m 1,6 km/h (1 Bft) 95,74 %
13.01.2021 19:08 3,5 C 3,3 C 1,7 C 90 % 1014,2 hPa 0,0 l/m 0 min 0 min 0 W/m 1,6 km/h (1 Bft) 97,87 %
13.01.2021 19:10 3,5 C 3,3 C 1,7 C 90 % 1014,1 hPa 0,0 l/m 0 min 0 min 0 W/m 0,0 km/h (0 Bft) 78,72 %
13.01.2021 19:12 3,5 C 3,3 C 1,7 C 90 % 1014,2 hPa 0,0 l/m 0 min 0 min 0 W/m 1,6 km/h (1 Bft) 71,74 %
13.01.2021 19:14 3,5 C 3,3 C 1,7 C 90 % 1014,2 hPa 0,0 l/m 0 min 0 min 0 W/m 1,6 km/h (1 Bft) 97,83 %
13.01.2021 19:16 3,5 C 3,3 C 1,7 C 90 % 1014,2 hPa 0,0 l/m 0 min 0 min 0 W/m 0,0 km/h (0 Bft) 95,74 %
13.01.2021 19:18 3,5 C 3,3 C 1,7 C 90 % 1014,3 hPa 0,0 l/m 0 min 0 min 0 W/m 1,6 km/h (1 Bft) 97,87 %
13.01.2021 19:20 3,5 C 3,3 C 1,7 C 90 % 1014,4 hPa 0,0 l/m 0 min 0 min 0 W/m 1,6 km/h (1 Bft) 97,87 %
13.01.2021 19:22 3,5 C 3,3 C 1,7 C 90 % 1014,5 hPa 0,0 l/m 0 min 0 min 0 W/m 1,6 km/h (1 Bft) 100,00 %
13.01.2021 19:24 3,5 C 3,3 C 1,7 C 90 % 1014,4 hPa 0,0 l/m 0 min 0 min 0 W/m 1,6 km/h (1 Bft) 100,00 %
13.01.2021 19:26 3,5 C 2,8 C 1,7 C 90 % 1014,3 hPa 0,0 l/m 0 min 0 min 0 W/m 0,0 km/h (0 Bft) 100,00 %
13.01.2021 19:28 3,5 C 2,8 C 1,7 C 90 % 1014,3 hPa 0,0 l/m 0 min 0 min 0 W/m 0,0 km/h (0 Bft) 100,00 %
13.01.2021 19:30 3,5 C 2,8 C 1,7 C 91 % 1014,3 hPa 0,0 l/m 0 min 0 min 0 W/m 1,6 km/h (1 Bft) 100,00 %
13.01.2021 19:32 3,5 C 2,8 C 1,7 C 91 % 1014,4 hPa 0,0 l/m 0 min 0 min 0 W/m 1,6 km/h (1 Bft) 97,92 %
13.01.2021 19:34 3,5 C 2,8 C 1,7 C 91 % 1014,3 hPa 0,0 l/m 0 min 0 min 0 W/m 0,0 km/h (0 Bft) 100,00 %
13.01.2021 19:36 3,5 C 2,8 C 1,7 C 91 % 1014,3 hPa 0,0 l/m 0 min 0 min 0 W/m 0,0 km/h (0 Bft) 100,00 %
13.01.2021 19:38 3,5 C 2,8 C 1,7 C 91 % 1014,3 hPa 0,0 l/m 0 min 0 min 0 W/m 1,6 km/h (1 Bft) 100,00 %
13.01.2021 19:40 3,5 C 2,8 C 1,7 C 91 % 1014,3 hPa 0,0 l/m 0 min 0 min 0 W/m 1,6 km/h (1 Bft) 97,87 %
13.01.2021 19:42 3,5 C 3,3 C 1,7 C 91 % 1014,2 hPa 0,0 l/m 0 min 0 min 0 W/m 1,6 km/h (1 Bft) 97,87 %
13.01.2021 19:44 3,5 C 3,3 C 1,7 C 91 % 1014,2 hPa 0,0 l/m 0 min 0 min 0 W/m 0,0 km/h (0 Bft) 95,74 %
13.01.2021 19:46 3,5 C 2,8 C 1,7 C 91 % 1014,2 hPa 0,0 l/m 0 min 0 min 0 W/m 0,0 km/h (0 Bft) 95,65 %
13.01.2021 19:48 3,5 C 2,8 C 1,7 C 91 % 1014,3 hPa 0,0 l/m 0 min 0 min 0 W/m 0,0 km/h (0 Bft) 97,87 %
13.01.2021 19:50 3,5 C 2,8 C 1,7 C 91 % 1014,3 hPa 0,0 l/m 0 min 0 min 0 W/m 1,6 km/h (1 Bft) 97,87 %
13.01.2021 19:52 3,5 C 2,8 C 1,7 C 91 % 1014,4 hPa 0,0 l/m 0 min 0 min 0 W/m 1,6 km/h (1 Bft) 97,14 %
13.01.2021 19:54 3,5 C 2,8 C 1,7 C 91 % 1014,3 hPa 0,0 l/m 0 min 0 min 0 W/m 1,6 km/h (1 Bft) 98,11 %
13.01.2021 19:56 3,5 C 2,8 C 1,7 C 91 % 1014,3 hPa 0,0 l/m 0 min 0 min 0 W/m 0,0 km/h (0 Bft) 98,00 %
13.01.2021 19:58 3,5 C 2,8 C 1,7 C 91 % 1014,3 hPa 0,0 l/m 0 min 0 min 0 W/m 1,6 km/h (1 Bft) 97,87 %
13.01.2021 20:00 3,5 C 2,8 C 1,7 C 91 % 1014,4 hPa 0,0 l/m 0 min 0 min 0 W/m 1,6 km/h (1 Bft) 97,96 %
13.01.2021 20:02 3,5 C 2,8 C 1,7 C 91 % 1014,4 hPa 0,0 l/m 0 min 0 min 0 W/m 1,6 km/h (1 Bft) 95,74 %
13.01.2021 20:04 3,5 C 2,8 C 1,7 C 91 % 1014,4 hPa 0,0 l/m 0 min 0 min 0 W/m 1,6 km/h (1 Bft) 97,87 %
13.01.2021 20:06 3,5 C 2,8 C 1,7 C 91 % 1014,5 hPa 0,0 l/m 0 min 0 min 0 W/m 1,6 km/h (1 Bft) 97,87 %
13.01.2021 20:08 3,5 C 2,8 C 1,7 C 91 % 1014,5 hPa 0,0 l/m 0 min 0 min 0 W/m 1,6 km/h (1 Bft) 97,87 %
13.01.2021 20:10 3,4 C 2,8 C 1,7 C 91 % 1014,6 hPa 0,0 l/m 0 min 0 min 0 W/m 1,6 km/h (1 Bft) 97,83 %
13.01.2021 20:12 3,4 C 2,8 C 1,7 C 91 % 1014,6 hPa 0,0 l/m 0 min 0 min 0 W/m 8,0 km/h (2 Bft) 97,87 %
13.01.2021 20:14 3,4 C 2,8 C 1,7 C 91 % 1014,7 hPa 0,0 l/m 0 min 0 min 0 W/m 1,6 km/h (1 Bft) 97,87 %
13.01.2021 20:16 3,4 C 2,8 C 1,2 C 91 % 1014,6 hPa 0,0 l/m 0 min 0 min 0 W/m 1,6 km/h (1 Bft) 97,87 %
13.01.2021 20:18 3,4 C 2,8 C 1,2 C 91 % 1014,6 hPa 0,0 l/m 0 min 0 min 0 W/m 0,0 km/h (0 Bft) 95,74 %
13.01.2021 20:20 3,4 C 2,8 C 1,7 C 91 % 1014,7 hPa 0,0 l/m 0 min 0 min 0 W/m 1,6 km/h (1 Bft) 95,74 %
13.01.2021 20:22 3,4 C 2,8 C 1,2 C 91 % 1014,6 hPa 0,0 l/m 0 min 0 min 0 W/m 9,7 km/h (2 Bft) 97,83 %
13.01.2021 20:24 3,4 C 2,8 C 1,2 C 91 % 1014,7 hPa 0,0 l/m 0 min 0 min 0 W/m 1,6 km/h (1 Bft) 97,87 %
13.01.2021 20:26 3,4 C 2,8 C 1,2 C 91 % 1014,7 hPa 0,0 l/m 0 min 0 min 0 W/m 1,6 km/h (1 Bft) 97,87 %
13.01.2021 20:27 3,3 C 2,8 C 1,2 C 91 % 1014,7 hPa 0,0 l/m 0 min 0 min 0 W/m 1,6 km/h (1 Bft) 97,87 %
13.01.2021 20:30 3,3 C 2,8 C 1,2 C 92 % 1014,6 hPa 0,0 l/m 0 min 0 min 0 W/m 3,2 km/h (1 Bft) 100,00 %
13.01.2021 20:32 3,3 C 2,8 C 1,2 C 92 % 1014,6 hPa 0,0 l/m 0 min 0 min 0 W/m 1,6 km/h (1 Bft) 100,00 %
13.01.2021 20:34 3,3 C 2,8 C 1,2 C 92 % 1014,6 hPa 0,0 l/m 0 min 0 min 0 W/m 1,6 km/h (1 Bft) 97,83 %
13.01.2021 20:36 3,3 C 2,8 C 1,2 C 92 % 1014,6 hPa 0,0 l/m 0 min 0 min 0 W/m 1,6 km/h (1 Bft) 97,87 %
13.01.2021 20:38 3,3 C 2,8 C 1,2 C 92 % 1014,6 hPa 0,0 l/m 0 min 0 min 0 W/m 3,2 km/h (1 Bft) 100,00 %
13.01.2021 20:40 3,3 C 2,8 C 1,2 C 92 % 1014,6 hPa 0,0 l/m 0 min 0 min 0 W/m 3,2 km/h (1 Bft) 100,00 %
13.01.2021 20:42 3,3 C 2,8 C 1,2 C 92 % 1014,6 hPa 0,0 l/m 0 min 0 min 0 W/m 0,0 km/h (0 Bft) 95,74 %
13.01.2021 20:44 3,3 C 2,8 C 1,2 C 92 % 1014,6 hPa 0,0 l/m 0 min 0 min 0 W/m 3,2 km/h (1 Bft) 100,00 %
13.01.2021 20:46 3,2 C 2,8 C 1,2 C 92 % 1014,6 hPa 0,0 l/m 0 min 0 min 0 W/m 0,0 km/h (0 Bft) 97,87 %
13.01.2021 20:48 3,2 C 2,8 C 1,2 C 92 % 1014,5 hPa 0,0 l/m 0 min 0 min 0 W/m 3,2 km/h (1 Bft) 100,00 %
13.01.2021 20:50 3,2 C 2,8 C 1,2 C 92 % 1014,5 hPa 0,0 l/m 0 min 0 min 0 W/m 1,6 km/h (1 Bft) 100,00 %
13.01.2021 20:52 3,2 C 2,8 C 1,2 C 92 % 1014,4 hPa 0,0 l/m 0 min 0 min 0 W/m 0,0 km/h (0 Bft) 95,74 %
13.01.2021 20:54 3,2 C 2,8 C 1,2 C 92 % 1014,4 hPa 0,0 l/m 0 min 0 min 0 W/m 1,6 km/h (1 Bft) 100,00 %
13.01.2021 20:56 3,1 C 2,8 C 1,2 C 92 % 1014,4 hPa 0,0 l/m 0 min 0 min 0 W/m 0,0 km/h (0 Bft) 97,83 %
13.01.2021 20:58 3,1 C 2,8 C 1,2 C 92 % 1014,4 hPa 0,0 l/m 0 min 0 min 0 W/m 1,6 km/h (1 Bft) 100,00 %
13.01.2021 21:00 3,1 C 2,8 C 1,2 C 92 % 1014,4 hPa 0,0 l/m 0 min 0 min 0 W/m 3,2 km/h (1 Bft) 100,00 %
13.01.2021 21:02 3,1 C 2,8 C 1,2 C 92 % 1014,4 hPa 0,0 l/m 0 min 0 min 0 W/m 1,6 km/h (1 Bft) 93,62 %
13.01.2021 21:04 3,1 C 2,8 C 1,2 C 92 % 1014,4 hPa 0,0 l/m 0 min 0 min 0 W/m 1,6 km/h (1 Bft) 97,87 %
13.01.2021 21:06 3,1 C 2,8 C 1,2 C 92 % 1014,6 hPa 0,0 l/m 0 min 0 min 0 W/m 1,6 km/h (1 Bft) 100,00 %
13.01.2021 21:08 3,1 C 2,8 C 1,2 C 92 % 1014,6 hPa 0,0 l/m 0 min 0 min 0 W/m 1,6 km/h (1 Bft) 97,83 %
13.01.2021 21:10 3,1 C 2,8 C 1,2 C 92 % 1014,6 hPa 0,0 l/m 0 min 0 min 0 W/m 1,6 km/h (1 Bft) 100,00 %
13.01.2021 21:12 3,1 C 2,8 C 1,2 C 92 % 1014,6 hPa 0,0 l/m 0 min 0 min 0 W/m 1,6 km/h (1 Bft) 100,00 %
13.01.2021 21:14 3,1 C 2,8 C 1,2 C 92 % 1014,5 hPa 0,0 l/m 0 min 0 min 0 W/m 1,6 km/h (1 Bft) 100,00 %
13.01.2021 21:16 3,1 C 2,8 C 1,2 C 92 % 1014,5 hPa 0,0 l/m 0 min 0 min 0 W/m 1,6 km/h (1 Bft) 97,87 %
13.01.2021 21:18 3,0 C 2,2 C 1,2 C 92 % 1014,5 hPa 0,0 l/m 0 min 0 min 0 W/m 1,6 km/h (1 Bft) 97,87 %
13.01.2021 21:20 3,0 C 2,2 C 1,2 C 92 % 1014,5 hPa 0,0 l/m 0 min 0 min 0 W/m 1,6 km/h (1 Bft) 95,65 %
13.01.2021 21:22 3,0 C 2,2 C 1,2 C 93 % 1014,5 hPa 0,0 l/m 0 min 0 min 0 W/m 0,0 km/h (0 Bft) 97,87 %
13.01.2021 21:24 3,0 C 2,2 C 1,2 C 93 % 1014,5 hPa 0,0 l/m 0 min 0 min 0 W/m 1,6 km/h (1 Bft) 97,67 %
13.01.2021 21:26 3,0 C 2,8 C 1,2 C 92 % 1014,6 hPa 0,0 l/m 0 min 0 min 0 W/m 0,0 km/h (0 Bft) 95,65 %
13.01.2021 21:28 3,0 C 2,8 C 1,2 C 92 % 1014,6 hPa 0,0 l/m 0 min 0 min 0 W/m 1,6 km/h (1 Bft) 95,74 %
13.01.2021 21:30 3,0 C 2,8 C 1,2 C 93 % 1014,7 hPa 0,0 l/m 0 min 0 min 0 W/m 1,6 km/h (1 Bft) 95,74 %
13.01.2021 21:32 3,0 C 2,8 C 1,2 C 93 % 1014,7 hPa 0,0 l/m 0 min 0 min 0 W/m 1,6 km/h (1 Bft) 95,74 %
13.01.2021 21:34 3,0 C 2,8 C 1,2 C 93 % 1014,7 hPa 0,0 l/m 0 min 0 min 0 W/m 3,2 km/h (1 Bft) 95,74 %
13.01.2021 21:36 3,0 C 2,8 C 1,2 C 93 % 1014,7 hPa 0,0 l/m 0 min 0 min 0 W/m 1,6 km/h (1 Bft) 95,74 %
13.01.2021 21:38 3,0 C 2,8 C 1,2 C 93 % 1014,7 hPa 0,0 l/m 0 min 0 min 0 W/m 0,0 km/h (0 Bft) 95,65 %
13.01.2021 21:40 3,0 C 2,8 C 1,2 C 93 % 1014,8 hPa 0,0 l/m 0 min 0 min 0 W/m 1,6 km/h (1 Bft) 95,74 %
13.01.2021 21:42 3,0 C 2,8 C 1,2 C 93 % 1014,7 hPa 0,0 l/m 0 min 0 min 0 W/m 3,2 km/h (1 Bft) 95,74 %
13.01.2021 21:44 3,0 C 2,8 C 1,2 C 93 % 1014,8 hPa 0,0 l/m 0 min 0 min 0 W/m 1,6 km/h (1 Bft) 93,62 %
13.01.2021 21:46 3,0 C 2,8 C 1,2 C 93 % 1014,8 hPa 0,0 l/m 0 min 0 min 0 W/m 0,0 km/h (0 Bft) 91,49 %
13.01.2021 21:48 3,0 C 2,8 C 1,2 C 93 % 1014,7 hPa 0,0 l/m 0 min 0 min 0 W/m 1,6 km/h (1 Bft) 95,65 %
13.01.2021 21:50 3,0 C 2,8 C 1,2 C 93 % 1014,6 hPa 0,0 l/m 0 min 0 min 0 W/m 1,6 km/h (1 Bft) 93,62 %
13.01.2021 21:52 3,0 C 2,8 C 1,2 C 93 % 1014,7 hPa 0,0 l/m 0 min 0 min 0 W/m 0,0 km/h (0 Bft) 95,74 %
13.01.2021 21:54 3,0 C 2,8 C 1,2 C 93 % 1014,7 hPa 0,0 l/m 0 min 0 min 0 W/m 1,6 km/h (1 Bft) 95,74 %
13.01.2021 21:56 3,0 C 2,8 C 1,2 C 93 % 1014,6 hPa 0,0 l/m 0 min 0 min 0 W/m 0,0 km/h (0 Bft) 95,74 %
13.01.2021 21:58 3,0 C 2,8 C 1,2 C 93 % 1014,7 hPa 0,0 l/m 0 min 0 min 0 W/m 0,0 km/h (0 Bft) 97,87 %
13.01.2021 22:00 3,0 C 2,8 C 1,2 C 93 % 1014,6 hPa 0,0 l/m 0 min 0 min 0 W/m 3,2 km/h (1 Bft) 95,83 %
13.01.2021 22:02 3,0 C 2,8 C 1,2 C 93 % 1014,7 hPa 0,0 l/m 0 min 0 min 0 W/m 0,0 km/h (0 Bft) 95,74 %
13.01.2021 22:04 3,0 C 2,8 C 1,2 C 93 % 1014,8 hPa 0,0 l/m 0 min 0 min 0 W/m 1,6 km/h (1 Bft) 91,49 %
13.01.2021 22:06 3,0 C 2,8 C 1,2 C 93 % 1014,8 hPa 0,0 l/m 0 min 0 min 0 W/m 0,0 km/h (0 Bft) 61,70 %
13.01.2021 22:08 3,0 C 2,8 C 1,2 C 93 % 1014,8 hPa 0,0 l/m 0 min 0 min 0 W/m 3,2 km/h (1 Bft) 97,87 %
13.01.2021 22:10 3,0 C 2,8 C 1,2 C 93 % 1014,7 hPa 0,0 l/m 0 min 0 min 0 W/m 0,0 km/h (0 Bft) 97,87 %
13.01.2021 22:12 3,0 C 2,8 C 1,2 C 93 % 1014,7 hPa 0,0 l/m 0 min 0 min 0 W/m 1,6 km/h (1 Bft) 97,83 %
13.01.2021 22:14 3,0 C 2,8 C 1,2 C 93 % 1014,8 hPa 0,0 l/m 0 min 0 min 0 W/m 1,6 km/h (1 Bft) 97,87 %
13.01.2021 22:16 3,0 C 2,8 C 1,2 C 93 % 1014,9 hPa 0,0 l/m 0 min 0 min 0 W/m 0,0 km/h (0 Bft) 95,74 %
13.01.2021 22:18 3,1 C 2,8 C 1,2 C 93 % 1014,9 hPa 0,0 l/m 0 min 0 min 0 W/m 0,0 km/h (0 Bft) 97,87 %
13.01.2021 22:20 3,0 C 2,8 C 1,2 C 93 % 1014,9 hPa 0,0 l/m 0 min 0 min 0 W/m 0,0 km/h (0 Bft) 97,87 %
13.01.2021 22:22 3,1 C 2,8 C 1,2 C 93 % 1014,9 hPa 0,0 l/m 0 min 0 min 0 W/m 1,6 km/h (1 Bft) 97,87 %
13.01.2021 22:24 3,1 C 2,8 C 1,2 C 93 % 1014,9 hPa 0,0 l/m 0 min 0 min 0 W/m 0,0 km/h (0 Bft) 97,83 %
13.01.2021 22:26 3,1 C 2,8 C 1,7 C 93 % 1015,0 hPa 0,0 l/m 0 min 0 min 0 W/m 0,0 km/h (0 Bft) 97,87 %
13.01.2021 22:28 3,1 C 2,8 C 1,7 C 93 % 1015,1 hPa 0,0 l/m 0 min 0 min 0 W/m 1,6 km/h (1 Bft) 97,87 %
13.01.2021 22:30 3,1 C 2,8 C 1,2 C 93 % 1015,0 hPa 0,0 l/m 0 min 0 min 0 W/m 0,0 km/h (0 Bft) 95,74 %
13.01.2021 22:32 3,1 C 2,8 C 1,7 C 93 % 1015,0 hPa 0,0 l/m 0 min 0 min 0 W/m 1,6 km/h (1 Bft) 93,62 %
13.01.2021 22:34 3,1 C 2,8 C 1,7 C 93 % 1015,1 hPa 0,0 l/m 0 min 0 min 0 W/m 0,0 km/h (0 Bft) 95,74 %
13.01.2021 22:36 3,2 C 2,8 C 1,2 C 93 % 1015,1 hPa 0,0 l/m 0 min 0 min 0 W/m 3,2 km/h (1 Bft) 95,65 %
13.01.2021 22:38 3,2 C 2,8 C 1,7 C 93 % 1015,2 hPa 0,0 l/m 0 min 0 min 0 W/m 0,0 km/h (0 Bft) 93,62 %
13.01.2021 22:40 3,2 C 2,8 C 1,7 C 93 % 1015,2 hPa 0,0 l/m 0 min 0 min 0 W/m 3,2 km/h (1 Bft) 93,62 %
13.01.2021 22:42 3,2 C 2,8 C 1,7 C 93 % 1015,3 hPa 0,0 l/m 0 min 0 min 0 W/m 1,6 km/h (1 Bft) 95,74 %
13.01.2021 22:44 3,2 C 2,8 C 1,7 C 93 % 1015,3 hPa 0,0 l/m 0 min 0 min 0 W/m 0,0 km/h (0 Bft) 95,74 %
13.01.2021 22:46 3,3 C 2,8 C 1,7 C 93 % 1015,3 hPa 0,0 l/m 0 min 0 min 0 W/m 11,3 km/h (2 Bft) 95,74 %
13.01.2021 22:48 3,3 C 3,3 C 1,7 C 93 % 1015,3 hPa 0,0 l/m 0 min 0 min 0 W/m 6,4 km/h (2 Bft) 95,65 %
13.01.2021 22:50 3,3 C 3,3 C 1,7 C 93 % 1015,4 hPa 0,0 l/m 0 min 0 min 0 W/m 1,6 km/h (1 Bft) 95,74 %
13.01.2021 22:52 3,3 C 3,3 C 1,7 C 93 % 1015,4 hPa 0,0 l/m 0 min 0 min 0 W/m 1,6 km/h (1 Bft) 93,62 %
13.01.2021 22:54 3,4 C 2,8 C 1,7 C 93 % 1015,5 hPa 0,0 l/m 0 min 0 min 0 W/m 0,0 km/h (0 Bft) 95,74 %
13.01.2021 22:56 3,4 C 2,8 C 1,7 C 93 % 1015,5 hPa 0,0 l/m 0 min 0 min 0 W/m 1,6 km/h (1 Bft) 93,62 %
13.01.2021 22:58 3,4 C 2,8 C 1,2 C 93 % 1015,4 hPa 0,0 l/m 0 min 2 min 0 W/m 3,2 km/h (1 Bft) 95,74 %
13.01.2021 23:00 3,4 C 2,8 C 1,2 C 93 % 1015,6 hPa 0,0 l/m 0 min 2 min 0 W/m 1,6 km/h (1 Bft) 95,65 %
13.01.2021 23:02 3,4 C 2,8 C 1,2 C 93 % 1015,6 hPa 0,0 l/m 0 min 0 min 0 W/m 0,0 km/h (0 Bft) 93,62 %
13.01.2021 23:04 3,4 C 2,8 C 1,2 C 93 % 1015,4 hPa 0,0 l/m 0 min 0 min 0 W/m 1,6 km/h (1 Bft) 95,74 %
13.01.2021 23:06 3,4 C 2,8 C 1,2 C 93 % 1015,4 hPa 0,0 l/m 0 min 0 min 0 W/m 1,6 km/h (1 Bft) 95,74 %
13.01.2021 23:08 3,4 C 2,8 C 1,2 C 93 % 1015,6 hPa 0,0 l/m 0 min 0 min 0 W/m 1,6 km/h (1 Bft) 95,74 %
13.01.2021 23:10 3,4 C 2,8 C 1,2 C 94 % 1015,6 hPa 0,0 l/m 0 min 0 min 0 W/m 0,0 km/h (0 Bft) 95,74 %
13.01.2021 23:12 3,4 C 2,8 C 1,2 C 94 % 1015,5 hPa 0,0 l/m 0 min 0 min 0 W/m 0,0 km/h (0 Bft) 95,65 %
13.01.2021 23:14 3,4 C 2,8 C 1,2 C 94 % 1015,6 hPa 0,0 l/m 0 min 0 min 0 W/m 3,2 km/h (1 Bft) 93,62 %
13.01.2021 23:16 3,4 C 2,8 C 1,2 C 94 % 1015,7 hPa 0,0 l/m 0 min 0 min 0 W/m 1,6 km/h (1 Bft) 95,74 %
13.01.2021 23:18 3,4 C 2,8 C 1,2 C 94 % 1015,8 hPa 0,0 l/m 0 min 0 min 0 W/m 6,4 km/h (2 Bft) 95,83 %
13.01.2021 23:20 3,4 C 2,8 C 1,2 C 94 % 1015,8 hPa 0,0 l/m 0 min 0 min 0 W/m 8,0 km/h (2 Bft) 95,74 %
13.01.2021 23:22 3,4 C 2,8 C 1,2 C 94 % 1015,6 hPa 0,0 l/m 0 min 0 min 0 W/m 6,4 km/h (2 Bft) 97,83 %
13.01.2021 23:24 3,4 C 2,8 C 1,2 C 94 % 1015,6 hPa 0,0 l/m 0 min 0 min 0 W/m 0,0 km/h (0 Bft) 97,87 %
13.01.2021 23:26 3,4 C 2,8 C 1,2 C 94 % 1015,5 hPa 0,0 l/m 0 min 0 min 0 W/m 0,0 km/h (0 Bft) 100,00 %
13.01.2021 23:28 3,4 C 2,8 C 1,2 C 94 % 1015,6 hPa 0,0 l/m 0 min 0 min 0 W/m 14,5 km/h (3 Bft) 97,87 %
13.01.2021 23:30 3,4 C 2,8 C 1,2 C 94 % 1015,7 hPa 0,0 l/m 0 min 0 min 0 W/m 1,6 km/h (1 Bft) 100,00 %
13.01.2021 23:32 3,4 C 2,8 C 1,2 C 94 % 1015,8 hPa 0,0 l/m 0 min 0 min 0 W/m 4,8 km/h (1 Bft) 100,00 %
13.01.2021 23:34 3,4 C 2,8 C 1,2 C 94 % 1015,9 hPa 0,0 l/m 0 min 0 min 0 W/m 4,8 km/h (1 Bft) 97,83 %
13.01.2021 23:36 3,4 C 2,8 C 1,7 C 94 % 1016,0 hPa 0,0 l/m 0 min 0 min 0 W/m 1,6 km/h (1 Bft) 97,87 %
13.01.2021 23:38 3,4 C 2,8 C 1,2 C 94 % 1016,0 hPa 0,0 l/m 0 min 0 min 0 W/m 1,6 km/h (1 Bft) 97,87 %
13.01.2021 23:40 3,4 C 2,8 C 1,2 C 94 % 1016,0 hPa 0,0 l/m 0 min 0 min 0 W/m 0,0 km/h (0 Bft) 100,00 %
13.01.2021 23:42 3,4 C 2,8 C 1,2 C 94 % 1016,1 hPa 0,0 l/m 0 min 0 min 0 W/m 0,0 km/h (0 Bft) 100,00 %
13.01.2021 23:44 3,4 C 2,8 C 1,2 C 94 % 1016,2 hPa 0,0 l/m 0 min 0 min 0 W/m 0,0 km/h (0 Bft) 95,74 %
13.01.2021 23:46 3,4 C 2,8 C 1,2 C 94 % 1016,2 hPa 0,0 l/m 0 min 0 min 0 W/m 0,0 km/h (0 Bft) 100,00 %
13.01.2021 23:48 3,4 C 2,8 C 1,7 C 94 % 1016,2 hPa 0,0 l/m 0 min 0 min 0 W/m 0,0 km/h (0 Bft) 100,00 %
13.01.2021 23:50 3,4 C 2,8 C 1,7 C 94 % 1016,2 hPa 0,0 l/m 0 min 0 min 0 W/m 1,6 km/h (1 Bft) 100,00 %
13.01.2021 23:52 3,3 C 2,8 C 1,7 C 94 % 1016,2 hPa 0,0 l/m 0 min 0 min 0 W/m 1,6 km/h (1 Bft) 100,00 %
13.01.2021 23:54 3,3 C 2,8 C 1,2 C 94 % 1016,4 hPa 0,0 l/m 0 min 0 min 0 W/m 4,8 km/h (1 Bft) 95,74 %
13.01.2021 23:56 3,3 C 2,8 C 1,2 C 95 % 1016,3 hPa 0,0 l/m 0 min 0 min 0 W/m 1,6 km/h (1 Bft) 97,87 %
13.01.2021 23:58 3,3 C 2,8 C 1,7 C 95 % 1016,4 hPa 0,0 l/m 0 min 0 min 0 W/m 0,0 km/h (0 Bft) 100,00 %
_ Min-Zeit 02:48 02:42 02:02 14:44 17:44 - - - - 00:00 07:26
Minimum _ 0,8 C 0,0 C -0,5 C 87 % 1014,1 hPa - - - - 0,0 km/h (0 Bft) 27,59 %
_ Max-Zeit 14:24 14:18 14:20 10:26 04:22 05:26 12:40 05:20 14:14 13:36 00:26
Maximum _ 4,9 C 7,8 C 6,7 C 98 % 1017,7 hPa 0,2 l/m 2 min 2 min 315 W/m 16,1 km/h
S-SO (3 Bft)
100,00 %
Durchschnitt _ 2,6 C 2,3 C 1,4 C 94 % 1016,1 hPa #0,4 l/m #24 min. #28 min. 70 W/m 1,8 km/h (1 Bft) 97,03 %
© 2021 W. Hausmann